<?xml version="1.0" encoding="UTF-8" standalone="no" ?>
<gpx xmlns="http://www.topografix.com/GPX/1/1" xmlns:xsi="http://www.w3.org/2001/XMLSchema-instance" xsi:schemaLocation="http://www.topografix.com/GPX/1/1 http://www.topografix.com/GPX/1/1/gpx.xsd" version="1.1" creator="VisuGPX - https://www.visugpx.com">
  <metadata>
    <name>Les deux chateaux</name>
    <desc><![CDATA[Balade VTT autour du Holandsbourg. circuit roulant, un seul passage nécessitant de la technique]]></desc>
  </metadata>
  <trk>
    <name><![CDATA[20160116_0937]]></name>
    <trkseg>
      <trkpt lat="48.07581" lon="7.26542">
        <ele>255.7</ele>
        <time>2016-01-16T08:37:11.257Z</time>
      </trkpt>
      <trkpt lat="48.07564" lon="7.26564">
        <ele>257.3</ele>
        <time>2016-01-16T08:38:04.276Z</time>
      </trkpt>
      <trkpt lat="48.07548" lon="7.26556">
        <ele>260</ele>
        <time>2016-01-16T08:38:11.286Z</time>
      </trkpt>
      <trkpt lat="48.07534" lon="7.26544">
        <ele>260.9</ele>
        <time>2016-01-16T08:38:19.259Z</time>
      </trkpt>
      <trkpt lat="48.07516" lon="7.2653">
        <ele>259.9</ele>
        <time>2016-01-16T08:38:28.253Z</time>
      </trkpt>
      <trkpt lat="48.07494" lon="7.26518">
        <ele>259.7</ele>
        <time>2016-01-16T08:38:36.307Z</time>
      </trkpt>
      <trkpt lat="48.07475" lon="7.26508">
        <ele>262.2</ele>
        <time>2016-01-16T08:38:44.259Z</time>
      </trkpt>
      <trkpt lat="48.07457" lon="7.265">
        <ele>264.2</ele>
        <time>2016-01-16T08:38:51.299Z</time>
      </trkpt>
      <trkpt lat="48.07437" lon="7.26492">
        <ele>265.6</ele>
        <time>2016-01-16T08:38:59.260Z</time>
      </trkpt>
      <trkpt lat="48.0742" lon="7.26489">
        <ele>264.7</ele>
        <time>2016-01-16T08:39:07.290Z</time>
      </trkpt>
      <trkpt lat="48.07403" lon="7.26484">
        <ele>264.5</ele>
        <time>2016-01-16T08:39:14.278Z</time>
      </trkpt>
      <trkpt lat="48.07381" lon="7.26477">
        <ele>267.4</ele>
        <time>2016-01-16T08:39:22.290Z</time>
      </trkpt>
      <trkpt lat="48.0736" lon="7.26469">
        <ele>271.3</ele>
        <time>2016-01-16T08:39:30.313Z</time>
      </trkpt>
      <trkpt lat="48.07339" lon="7.2646">
        <ele>274.7</ele>
        <time>2016-01-16T08:39:38.290Z</time>
      </trkpt>
      <trkpt lat="48.07321" lon="7.26452">
        <ele>277.5</ele>
        <time>2016-01-16T08:39:45.255Z</time>
      </trkpt>
      <trkpt lat="48.07312" lon="7.26461">
        <ele>279.2</ele>
        <time>2016-01-16T08:39:53.261Z</time>
      </trkpt>
      <trkpt lat="48.07317" lon="7.26476">
        <ele>281</ele>
        <time>2016-01-16T08:40:01.261Z</time>
      </trkpt>
      <trkpt lat="48.07325" lon="7.26491">
        <ele>282.7</ele>
        <time>2016-01-16T08:40:09.252Z</time>
      </trkpt>
      <trkpt lat="48.07333" lon="7.26506">
        <ele>283.5</ele>
        <time>2016-01-16T08:40:17.257Z</time>
      </trkpt>
      <trkpt lat="48.07341" lon="7.26519">
        <ele>284.3</ele>
        <time>2016-01-16T08:40:24.271Z</time>
      </trkpt>
      <trkpt lat="48.0735" lon="7.26532">
        <ele>286.8</ele>
        <time>2016-01-16T08:40:32.258Z</time>
      </trkpt>
      <trkpt lat="48.07358" lon="7.26547">
        <ele>289.3</ele>
        <time>2016-01-16T08:40:40.255Z</time>
      </trkpt>
      <trkpt lat="48.07366" lon="7.26562">
        <ele>291.5</ele>
        <time>2016-01-16T08:40:48.310Z</time>
      </trkpt>
      <trkpt lat="48.07371" lon="7.26574">
        <ele>293.7</ele>
        <time>2016-01-16T08:40:55.326Z</time>
      </trkpt>
      <trkpt lat="48.07379" lon="7.26591">
        <ele>296.4</ele>
        <time>2016-01-16T08:41:03.276Z</time>
      </trkpt>
      <trkpt lat="48.07385" lon="7.26603">
        <ele>297</ele>
        <time>2016-01-16T08:41:11.276Z</time>
      </trkpt>
      <trkpt lat="48.07391" lon="7.26613">
        <ele>298.5</ele>
        <time>2016-01-16T08:41:18.262Z</time>
      </trkpt>
      <trkpt lat="48.07395" lon="7.26627">
        <ele>301.5</ele>
        <time>2016-01-16T08:41:27.253Z</time>
      </trkpt>
      <trkpt lat="48.07397" lon="7.2664">
        <ele>303.3</ele>
        <time>2016-01-16T08:41:35.290Z</time>
      </trkpt>
      <trkpt lat="48.07399" lon="7.26655">
        <ele>304</ele>
        <time>2016-01-16T08:41:43.274Z</time>
      </trkpt>
      <trkpt lat="48.07404" lon="7.2667">
        <ele>304.4</ele>
        <time>2016-01-16T08:41:53.293Z</time>
      </trkpt>
      <trkpt lat="48.07407" lon="7.26683">
        <ele>306.8</ele>
        <time>2016-01-16T08:42:03.262Z</time>
      </trkpt>
      <trkpt lat="48.07411" lon="7.26694">
        <ele>310.9</ele>
        <time>2016-01-16T08:42:11.264Z</time>
      </trkpt>
      <trkpt lat="48.07416" lon="7.26706">
        <ele>313.3</ele>
        <time>2016-01-16T08:42:20.259Z</time>
      </trkpt>
      <trkpt lat="48.07422" lon="7.26717">
        <ele>314.7</ele>
        <time>2016-01-16T08:42:27.259Z</time>
      </trkpt>
      <trkpt lat="48.07427" lon="7.26728">
        <ele>317.4</ele>
        <time>2016-01-16T08:42:37.273Z</time>
      </trkpt>
      <trkpt lat="48.07431" lon="7.26741">
        <ele>319.8</ele>
        <time>2016-01-16T08:42:45.260Z</time>
      </trkpt>
      <trkpt lat="48.07435" lon="7.26753">
        <ele>321.2</ele>
        <time>2016-01-16T08:42:53.257Z</time>
      </trkpt>
      <trkpt lat="48.07439" lon="7.26766">
        <ele>323</ele>
        <time>2016-01-16T08:43:02.298Z</time>
      </trkpt>
      <trkpt lat="48.07444" lon="7.26777">
        <ele>325.8</ele>
        <time>2016-01-16T08:43:11.299Z</time>
      </trkpt>
      <trkpt lat="48.07448" lon="7.2679">
        <ele>328.1</ele>
        <time>2016-01-16T08:43:34.278Z</time>
      </trkpt>
      <trkpt lat="48.07453" lon="7.26802">
        <ele>328.2</ele>
        <time>2016-01-16T08:43:47.276Z</time>
      </trkpt>
      <trkpt lat="48.07457" lon="7.26816">
        <ele>329.8</ele>
        <time>2016-01-16T08:43:56.256Z</time>
      </trkpt>
      <trkpt lat="48.07461" lon="7.2683">
        <ele>332.7</ele>
        <time>2016-01-16T08:44:04.263Z</time>
      </trkpt>
      <trkpt lat="48.07463" lon="7.26844">
        <ele>333.6</ele>
        <time>2016-01-16T08:44:11.265Z</time>
      </trkpt>
      <trkpt lat="48.07465" lon="7.26859">
        <ele>334.4</ele>
        <time>2016-01-16T08:44:19.273Z</time>
      </trkpt>
      <trkpt lat="48.07465" lon="7.26873">
        <ele>336</ele>
        <time>2016-01-16T08:44:27.266Z</time>
      </trkpt>
      <trkpt lat="48.07464" lon="7.26887">
        <ele>335.1</ele>
        <time>2016-01-16T08:44:48.343Z</time>
      </trkpt>
      <trkpt lat="48.07458" lon="7.269">
        <ele>336.4</ele>
        <time>2016-01-16T08:44:58.308Z</time>
      </trkpt>
      <trkpt lat="48.07447" lon="7.26906">
        <ele>339</ele>
        <time>2016-01-16T08:45:07.301Z</time>
      </trkpt>
      <trkpt lat="48.07439" lon="7.26903">
        <ele>341.9</ele>
        <time>2016-01-16T08:45:16.259Z</time>
      </trkpt>
      <trkpt lat="48.0743" lon="7.26908">
        <ele>342.6</ele>
        <time>2016-01-16T08:45:27.298Z</time>
      </trkpt>
      <trkpt lat="48.07429" lon="7.26924">
        <ele>343</ele>
        <time>2016-01-16T08:45:58.275Z</time>
      </trkpt>
      <trkpt lat="48.07426" lon="7.26947">
        <ele>343.6</ele>
        <time>2016-01-16T08:46:07.272Z</time>
      </trkpt>
      <trkpt lat="48.07423" lon="7.26973">
        <ele>345.6</ele>
        <time>2016-01-16T08:46:15.296Z</time>
      </trkpt>
      <trkpt lat="48.07424" lon="7.27005">
        <ele>347</ele>
        <time>2016-01-16T08:46:23.283Z</time>
      </trkpt>
      <trkpt lat="48.07421" lon="7.27034">
        <ele>347.3</ele>
        <time>2016-01-16T08:46:30.275Z</time>
      </trkpt>
      <trkpt lat="48.07417" lon="7.2707">
        <ele>349.8</ele>
        <time>2016-01-16T08:46:38.275Z</time>
      </trkpt>
      <trkpt lat="48.07407" lon="7.27109">
        <ele>349.1</ele>
        <time>2016-01-16T08:46:46.292Z</time>
      </trkpt>
      <trkpt lat="48.07387" lon="7.27141">
        <ele>348.4</ele>
        <time>2016-01-16T08:46:54.263Z</time>
      </trkpt>
      <trkpt lat="48.07368" lon="7.27171">
        <ele>348.2</ele>
        <time>2016-01-16T08:47:02.272Z</time>
      </trkpt>
      <trkpt lat="48.07343" lon="7.27201">
        <ele>349.7</ele>
        <time>2016-01-16T08:47:10.255Z</time>
      </trkpt>
      <trkpt lat="48.07319" lon="7.27217">
        <ele>349.9</ele>
        <time>2016-01-16T08:47:17.289Z</time>
      </trkpt>
      <trkpt lat="48.07288" lon="7.27227">
        <ele>347.6</ele>
        <time>2016-01-16T08:47:25.291Z</time>
      </trkpt>
      <trkpt lat="48.07259" lon="7.27252">
        <ele>350.3</ele>
        <time>2016-01-16T08:47:33.295Z</time>
      </trkpt>
      <trkpt lat="48.07232" lon="7.27291">
        <ele>352.1</ele>
        <time>2016-01-16T08:47:41.278Z</time>
      </trkpt>
      <trkpt lat="48.07213" lon="7.27322">
        <ele>353</ele>
        <time>2016-01-16T08:47:48.307Z</time>
      </trkpt>
      <trkpt lat="48.07204" lon="7.2735">
        <ele>354.1</ele>
        <time>2016-01-16T08:47:56.308Z</time>
      </trkpt>
      <trkpt lat="48.07197" lon="7.27376">
        <ele>357.3</ele>
        <time>2016-01-16T08:48:03.301Z</time>
      </trkpt>
      <trkpt lat="48.07187" lon="7.27402">
        <ele>358.7</ele>
        <time>2016-01-16T08:48:11.310Z</time>
      </trkpt>
      <trkpt lat="48.07172" lon="7.27425">
        <ele>357.8</ele>
        <time>2016-01-16T08:48:19.293Z</time>
      </trkpt>
      <trkpt lat="48.07164" lon="7.2744">
        <ele>358.6</ele>
        <time>2016-01-16T08:48:25.306Z</time>
      </trkpt>
      <trkpt lat="48.07152" lon="7.27449">
        <ele>359.8</ele>
        <time>2016-01-16T08:48:31.313Z</time>
      </trkpt>
      <trkpt lat="48.07136" lon="7.27458">
        <ele>358</ele>
        <time>2016-01-16T08:48:38.304Z</time>
      </trkpt>
      <trkpt lat="48.07119" lon="7.27465">
        <ele>357.7</ele>
        <time>2016-01-16T08:48:45.303Z</time>
      </trkpt>
      <trkpt lat="48.07102" lon="7.2747">
        <ele>360.3</ele>
        <time>2016-01-16T08:48:53.290Z</time>
      </trkpt>
      <trkpt lat="48.07086" lon="7.2747">
        <ele>363.5</ele>
        <time>2016-01-16T08:49:01.297Z</time>
      </trkpt>
      <trkpt lat="48.0707" lon="7.27471">
        <ele>366.1</ele>
        <time>2016-01-16T08:49:08.309Z</time>
      </trkpt>
      <trkpt lat="48.07051" lon="7.27472">
        <ele>369.2</ele>
        <time>2016-01-16T08:49:16.307Z</time>
      </trkpt>
      <trkpt lat="48.07028" lon="7.2748">
        <ele>370.9</ele>
        <time>2016-01-16T08:49:24.266Z</time>
      </trkpt>
      <trkpt lat="48.0701" lon="7.27489">
        <ele>371.6</ele>
        <time>2016-01-16T08:49:31.270Z</time>
      </trkpt>
      <trkpt lat="48.06993" lon="7.275">
        <ele>372.3</ele>
        <time>2016-01-16T08:49:38.272Z</time>
      </trkpt>
      <trkpt lat="48.06976" lon="7.27509">
        <ele>372.8</ele>
        <time>2016-01-16T08:49:45.268Z</time>
      </trkpt>
      <trkpt lat="48.06958" lon="7.2752">
        <ele>374.2</ele>
        <time>2016-01-16T08:49:53.274Z</time>
      </trkpt>
      <trkpt lat="48.06941" lon="7.2753">
        <ele>375</ele>
        <time>2016-01-16T08:50:01.266Z</time>
      </trkpt>
      <trkpt lat="48.06922" lon="7.27528">
        <ele>376.5</ele>
        <time>2016-01-16T08:50:08.275Z</time>
      </trkpt>
      <trkpt lat="48.06905" lon="7.27527">
        <ele>377.6</ele>
        <time>2016-01-16T08:50:15.315Z</time>
      </trkpt>
      <trkpt lat="48.06889" lon="7.27519">
        <ele>379.1</ele>
        <time>2016-01-16T08:50:22.310Z</time>
      </trkpt>
      <trkpt lat="48.06876" lon="7.27512">
        <ele>380.2</ele>
        <time>2016-01-16T08:50:29.315Z</time>
      </trkpt>
      <trkpt lat="48.06857" lon="7.27497">
        <ele>378.9</ele>
        <time>2016-01-16T08:51:23.292Z</time>
      </trkpt>
      <trkpt lat="48.06839" lon="7.27491">
        <ele>380.2</ele>
        <time>2016-01-16T08:51:31.292Z</time>
      </trkpt>
      <trkpt lat="48.06817" lon="7.27482">
        <ele>382</ele>
        <time>2016-01-16T08:51:39.291Z</time>
      </trkpt>
      <trkpt lat="48.06798" lon="7.27476">
        <ele>384.9</ele>
        <time>2016-01-16T08:51:46.303Z</time>
      </trkpt>
      <trkpt lat="48.06778" lon="7.27464">
        <ele>386.2</ele>
        <time>2016-01-16T08:51:54.289Z</time>
      </trkpt>
      <trkpt lat="48.06763" lon="7.27454">
        <ele>387.6</ele>
        <time>2016-01-16T08:52:01.286Z</time>
      </trkpt>
      <trkpt lat="48.06746" lon="7.27434">
        <ele>389</ele>
        <time>2016-01-16T08:52:09.267Z</time>
      </trkpt>
      <trkpt lat="48.06735" lon="7.27411">
        <ele>389.9</ele>
        <time>2016-01-16T08:52:16.305Z</time>
      </trkpt>
      <trkpt lat="48.06716" lon="7.27416">
        <ele>391.3</ele>
        <time>2016-01-16T08:52:25.292Z</time>
      </trkpt>
      <trkpt lat="48.06692" lon="7.27412">
        <ele>390.6</ele>
        <time>2016-01-16T08:52:34.308Z</time>
      </trkpt>
      <trkpt lat="48.06676" lon="7.27405">
        <ele>390.1</ele>
        <time>2016-01-16T08:52:40.309Z</time>
      </trkpt>
      <trkpt lat="48.06657" lon="7.27417">
        <ele>390.9</ele>
        <time>2016-01-16T08:52:48.285Z</time>
      </trkpt>
      <trkpt lat="48.06649" lon="7.27463">
        <ele>391</ele>
        <time>2016-01-16T08:52:56.308Z</time>
      </trkpt>
      <trkpt lat="48.0664" lon="7.27518">
        <ele>387.2</ele>
        <time>2016-01-16T08:53:04.308Z</time>
      </trkpt>
      <trkpt lat="48.06638" lon="7.2758">
        <ele>387.3</ele>
        <time>2016-01-16T08:53:12.304Z</time>
      </trkpt>
      <trkpt lat="48.06636" lon="7.27642">
        <ele>385.4</ele>
        <time>2016-01-16T08:53:20.312Z</time>
      </trkpt>
      <trkpt lat="48.06623" lon="7.27682">
        <ele>384.6</ele>
        <time>2016-01-16T08:53:27.279Z</time>
      </trkpt>
      <trkpt lat="48.06591" lon="7.27683">
        <ele>381.5</ele>
        <time>2016-01-16T08:53:36.309Z</time>
      </trkpt>
      <trkpt lat="48.06558" lon="7.27664">
        <ele>381.6</ele>
        <time>2016-01-16T08:53:44.311Z</time>
      </trkpt>
      <trkpt lat="48.06528" lon="7.2764">
        <ele>382.2</ele>
        <time>2016-01-16T08:53:51.306Z</time>
      </trkpt>
      <trkpt lat="48.06489" lon="7.27614">
        <ele>383.6</ele>
        <time>2016-01-16T08:53:59.301Z</time>
      </trkpt>
      <trkpt lat="48.06446" lon="7.27573">
        <ele>384.4</ele>
        <time>2016-01-16T08:54:08.334Z</time>
      </trkpt>
      <trkpt lat="48.06422" lon="7.27535">
        <ele>383.4</ele>
        <time>2016-01-16T08:54:15.313Z</time>
      </trkpt>
      <trkpt lat="48.06399" lon="7.27522">
        <ele>382.6</ele>
        <time>2016-01-16T08:54:25.308Z</time>
      </trkpt>
      <trkpt lat="48.06388" lon="7.2751">
        <ele>384.7</ele>
        <time>2016-01-16T08:54:55.274Z</time>
      </trkpt>
      <trkpt lat="48.06377" lon="7.27486">
        <ele>386.1</ele>
        <time>2016-01-16T08:55:04.279Z</time>
      </trkpt>
      <trkpt lat="48.06358" lon="7.27514">
        <ele>385.5</ele>
        <time>2016-01-16T08:55:13.271Z</time>
      </trkpt>
      <trkpt lat="48.06348" lon="7.27553">
        <ele>383.7</ele>
        <time>2016-01-16T08:55:21.258Z</time>
      </trkpt>
      <trkpt lat="48.06329" lon="7.27605">
        <ele>379</ele>
        <time>2016-01-16T08:55:29.315Z</time>
      </trkpt>
      <trkpt lat="48.06332" lon="7.27656">
        <ele>375.3</ele>
        <time>2016-01-16T08:55:36.259Z</time>
      </trkpt>
      <trkpt lat="48.06319" lon="7.27703">
        <ele>371.7</ele>
        <time>2016-01-16T08:55:44.310Z</time>
      </trkpt>
      <trkpt lat="48.06291" lon="7.27726">
        <ele>370.9</ele>
        <time>2016-01-16T08:55:51.257Z</time>
      </trkpt>
      <trkpt lat="48.06272" lon="7.27752">
        <ele>369.9</ele>
        <time>2016-01-16T08:55:59.286Z</time>
      </trkpt>
      <trkpt lat="48.06276" lon="7.27798">
        <ele>371</ele>
        <time>2016-01-16T08:56:08.257Z</time>
      </trkpt>
      <trkpt lat="48.06337" lon="7.27872">
        <ele>370.4</ele>
        <time>2016-01-16T08:56:17.266Z</time>
      </trkpt>
      <trkpt lat="48.06372" lon="7.27943">
        <ele>365.4</ele>
        <time>2016-01-16T08:56:24.262Z</time>
      </trkpt>
      <trkpt lat="48.06421" lon="7.28042">
        <ele>355.8</ele>
        <time>2016-01-16T08:56:32.262Z</time>
      </trkpt>
      <trkpt lat="48.06418" lon="7.28046">
        <ele>346.6</ele>
        <time>2016-01-16T08:56:56.257Z</time>
      </trkpt>
      <trkpt lat="48.06411" lon="7.28032">
        <ele>346.8</ele>
        <time>2016-01-16T08:57:14.260Z</time>
      </trkpt>
      <trkpt lat="48.06405" lon="7.28017">
        <ele>348.4</ele>
        <time>2016-01-16T08:57:21.291Z</time>
      </trkpt>
      <trkpt lat="48.06398" lon="7.27997">
        <ele>351.1</ele>
        <time>2016-01-16T08:57:29.265Z</time>
      </trkpt>
      <trkpt lat="48.06385" lon="7.27976">
        <ele>353.6</ele>
        <time>2016-01-16T08:57:38.301Z</time>
      </trkpt>
      <trkpt lat="48.06375" lon="7.27958">
        <ele>356</ele>
        <time>2016-01-16T08:57:46.296Z</time>
      </trkpt>
      <trkpt lat="48.06368" lon="7.27943">
        <ele>360.3</ele>
        <time>2016-01-16T08:57:55.279Z</time>
      </trkpt>
      <trkpt lat="48.06361" lon="7.27933">
        <ele>364.6</ele>
        <time>2016-01-16T08:58:02.256Z</time>
      </trkpt>
      <trkpt lat="48.06356" lon="7.27917">
        <ele>368.8</ele>
        <time>2016-01-16T08:58:10.298Z</time>
      </trkpt>
      <trkpt lat="48.06346" lon="7.27894">
        <ele>368.3</ele>
        <time>2016-01-16T08:58:20.274Z</time>
      </trkpt>
      <trkpt lat="48.06341" lon="7.27884">
        <ele>363.8</ele>
        <time>2016-01-16T08:58:39.279Z</time>
      </trkpt>
      <trkpt lat="48.06334" lon="7.27873">
        <ele>364.6</ele>
        <time>2016-01-16T08:58:48.262Z</time>
      </trkpt>
      <trkpt lat="48.06323" lon="7.2786">
        <ele>365.8</ele>
        <time>2016-01-16T08:58:56.276Z</time>
      </trkpt>
      <trkpt lat="48.06315" lon="7.27852">
        <ele>365.4</ele>
        <time>2016-01-16T08:59:04.262Z</time>
      </trkpt>
      <trkpt lat="48.06308" lon="7.27843">
        <ele>369</ele>
        <time>2016-01-16T08:59:13.267Z</time>
      </trkpt>
      <trkpt lat="48.06298" lon="7.2783">
        <ele>370.9</ele>
        <time>2016-01-16T08:59:22.298Z</time>
      </trkpt>
      <trkpt lat="48.06289" lon="7.27818">
        <ele>371.9</ele>
        <time>2016-01-16T08:59:30.271Z</time>
      </trkpt>
      <trkpt lat="48.06281" lon="7.2781">
        <ele>372.6</ele>
        <time>2016-01-16T08:59:37.288Z</time>
      </trkpt>
      <trkpt lat="48.06273" lon="7.27801">
        <ele>375.7</ele>
        <time>2016-01-16T08:59:44.259Z</time>
      </trkpt>
      <trkpt lat="48.06267" lon="7.27784">
        <ele>378.6</ele>
        <time>2016-01-16T08:59:52.273Z</time>
      </trkpt>
      <trkpt lat="48.06273" lon="7.27754">
        <ele>379</ele>
        <time>2016-01-16T09:00:01.270Z</time>
      </trkpt>
      <trkpt lat="48.06296" lon="7.27728">
        <ele>377.6</ele>
        <time>2016-01-16T09:00:10.257Z</time>
      </trkpt>
      <trkpt lat="48.06319" lon="7.2771">
        <ele>375.5</ele>
        <time>2016-01-16T09:00:18.289Z</time>
      </trkpt>
      <trkpt lat="48.06328" lon="7.27676">
        <ele>374.5</ele>
        <time>2016-01-16T09:00:26.270Z</time>
      </trkpt>
      <trkpt lat="48.06328" lon="7.27641">
        <ele>375.1</ele>
        <time>2016-01-16T09:00:34.269Z</time>
      </trkpt>
      <trkpt lat="48.06332" lon="7.27604">
        <ele>375.4</ele>
        <time>2016-01-16T09:00:43.260Z</time>
      </trkpt>
      <trkpt lat="48.0634" lon="7.27579">
        <ele>377.1</ele>
        <time>2016-01-16T09:00:50.281Z</time>
      </trkpt>
      <trkpt lat="48.06347" lon="7.27559">
        <ele>379.2</ele>
        <time>2016-01-16T09:00:57.279Z</time>
      </trkpt>
      <trkpt lat="48.06351" lon="7.27532">
        <ele>382.3</ele>
        <time>2016-01-16T09:01:06.260Z</time>
      </trkpt>
      <trkpt lat="48.06359" lon="7.27514">
        <ele>384.3</ele>
        <time>2016-01-16T09:01:15.264Z</time>
      </trkpt>
      <trkpt lat="48.06368" lon="7.27492">
        <ele>385.8</ele>
        <time>2016-01-16T09:01:24.276Z</time>
      </trkpt>
      <trkpt lat="48.0636" lon="7.27499">
        <ele>387.5</ele>
        <time>2016-01-16T09:01:45.281Z</time>
      </trkpt>
      <trkpt lat="48.06353" lon="7.27511">
        <ele>387.8</ele>
        <time>2016-01-16T09:01:51.261Z</time>
      </trkpt>
      <trkpt lat="48.06352" lon="7.27531">
        <ele>386.4</ele>
        <time>2016-01-16T09:02:06.277Z</time>
      </trkpt>
      <trkpt lat="48.06349" lon="7.2755">
        <ele>384.2</ele>
        <time>2016-01-16T09:02:15.295Z</time>
      </trkpt>
      <trkpt lat="48.06339" lon="7.27563">
        <ele>385.4</ele>
        <time>2016-01-16T09:02:22.304Z</time>
      </trkpt>
      <trkpt lat="48.06331" lon="7.27577">
        <ele>386.5</ele>
        <time>2016-01-16T09:02:29.271Z</time>
      </trkpt>
      <trkpt lat="48.06323" lon="7.27592">
        <ele>388.8</ele>
        <time>2016-01-16T09:02:37.265Z</time>
      </trkpt>
      <trkpt lat="48.06314" lon="7.27622">
        <ele>386.6</ele>
        <time>2016-01-16T09:02:48.298Z</time>
      </trkpt>
      <trkpt lat="48.06305" lon="7.27645">
        <ele>390</ele>
        <time>2016-01-16T09:02:55.278Z</time>
      </trkpt>
      <trkpt lat="48.06301" lon="7.27668">
        <ele>391.4</ele>
        <time>2016-01-16T09:03:03.264Z</time>
      </trkpt>
      <trkpt lat="48.06291" lon="7.27684">
        <ele>390.3</ele>
        <time>2016-01-16T09:03:11.263Z</time>
      </trkpt>
      <trkpt lat="48.06281" lon="7.27693">
        <ele>389.1</ele>
        <time>2016-01-16T09:03:17.264Z</time>
      </trkpt>
      <trkpt lat="48.06268" lon="7.27704">
        <ele>391</ele>
        <time>2016-01-16T09:03:25.281Z</time>
      </trkpt>
      <trkpt lat="48.06254" lon="7.27718">
        <ele>391.5</ele>
        <time>2016-01-16T09:03:33.266Z</time>
      </trkpt>
      <trkpt lat="48.06245" lon="7.2773">
        <ele>393.8</ele>
        <time>2016-01-16T09:03:40.265Z</time>
      </trkpt>
      <trkpt lat="48.06235" lon="7.27747">
        <ele>396.7</ele>
        <time>2016-01-16T09:03:47.272Z</time>
      </trkpt>
      <trkpt lat="48.06225" lon="7.27772">
        <ele>401.3</ele>
        <time>2016-01-16T09:03:57.265Z</time>
      </trkpt>
      <trkpt lat="48.06228" lon="7.27785">
        <ele>404.1</ele>
        <time>2016-01-16T09:04:04.270Z</time>
      </trkpt>
      <trkpt lat="48.06235" lon="7.27809">
        <ele>407.3</ele>
        <time>2016-01-16T09:04:13.311Z</time>
      </trkpt>
      <trkpt lat="48.0624" lon="7.27831">
        <ele>406.9</ele>
        <time>2016-01-16T09:04:21.289Z</time>
      </trkpt>
      <trkpt lat="48.06245" lon="7.27859">
        <ele>409.6</ele>
        <time>2016-01-16T09:04:30.283Z</time>
      </trkpt>
      <trkpt lat="48.06251" lon="7.27882">
        <ele>408.6</ele>
        <time>2016-01-16T09:04:37.306Z</time>
      </trkpt>
      <trkpt lat="48.06255" lon="7.27911">
        <ele>411</ele>
        <time>2016-01-16T09:04:45.281Z</time>
      </trkpt>
      <trkpt lat="48.0626" lon="7.27949">
        <ele>412.8</ele>
        <time>2016-01-16T09:04:54.328Z</time>
      </trkpt>
      <trkpt lat="48.06262" lon="7.27976">
        <ele>409.6</ele>
        <time>2016-01-16T09:05:01.266Z</time>
      </trkpt>
      <trkpt lat="48.06263" lon="7.2799">
        <ele>409.3</ele>
        <time>2016-01-16T09:05:44.283Z</time>
      </trkpt>
      <trkpt lat="48.06267" lon="7.28">
        <ele>403.6</ele>
        <time>2016-01-16T09:06:07.272Z</time>
      </trkpt>
      <trkpt lat="48.06267" lon="7.28026">
        <ele>409</ele>
        <time>2016-01-16T09:06:17.262Z</time>
      </trkpt>
      <trkpt lat="48.06269" lon="7.28047">
        <ele>413.4</ele>
        <time>2016-01-16T09:06:24.264Z</time>
      </trkpt>
      <trkpt lat="48.06269" lon="7.28068">
        <ele>416.3</ele>
        <time>2016-01-16T09:06:31.275Z</time>
      </trkpt>
      <trkpt lat="48.06267" lon="7.28097">
        <ele>415.5</ele>
        <time>2016-01-16T09:07:13.261Z</time>
      </trkpt>
      <trkpt lat="48.06259" lon="7.28125">
        <ele>412.5</ele>
        <time>2016-01-16T09:07:22.268Z</time>
      </trkpt>
      <trkpt lat="48.0625" lon="7.28137">
        <ele>409.1</ele>
        <time>2016-01-16T09:07:30.280Z</time>
      </trkpt>
      <trkpt lat="48.06244" lon="7.28129">
        <ele>403.3</ele>
        <time>2016-01-16T09:07:55.261Z</time>
      </trkpt>
      <trkpt lat="48.06241" lon="7.28115">
        <ele>406</ele>
        <time>2016-01-16T09:08:23.259Z</time>
      </trkpt>
      <trkpt lat="48.06235" lon="7.28105">
        <ele>406.6</ele>
        <time>2016-01-16T09:08:34.269Z</time>
      </trkpt>
      <trkpt lat="48.06233" lon="7.28089">
        <ele>411</ele>
        <time>2016-01-16T09:08:45.265Z</time>
      </trkpt>
      <trkpt lat="48.06231" lon="7.28102">
        <ele>414.8</ele>
        <time>2016-01-16T09:09:07.286Z</time>
      </trkpt>
      <trkpt lat="48.06229" lon="7.28115">
        <ele>414.6</ele>
        <time>2016-01-16T09:09:15.282Z</time>
      </trkpt>
      <trkpt lat="48.06211" lon="7.28112">
        <ele>403.9</ele>
        <time>2016-01-16T09:10:03.264Z</time>
      </trkpt>
      <trkpt lat="48.06192" lon="7.28103">
        <ele>405.2</ele>
        <time>2016-01-16T09:10:11.319Z</time>
      </trkpt>
      <trkpt lat="48.06174" lon="7.28094">
        <ele>407.2</ele>
        <time>2016-01-16T09:10:19.279Z</time>
      </trkpt>
      <trkpt lat="48.06154" lon="7.28088">
        <ele>407.9</ele>
        <time>2016-01-16T09:10:27.276Z</time>
      </trkpt>
      <trkpt lat="48.06132" lon="7.28073">
        <ele>406.3</ele>
        <time>2016-01-16T09:10:35.286Z</time>
      </trkpt>
      <trkpt lat="48.06111" lon="7.28049">
        <ele>404.7</ele>
        <time>2016-01-16T09:10:43.281Z</time>
      </trkpt>
      <trkpt lat="48.06098" lon="7.28024">
        <ele>404.2</ele>
        <time>2016-01-16T09:10:50.298Z</time>
      </trkpt>
      <trkpt lat="48.06083" lon="7.27997">
        <ele>404.9</ele>
        <time>2016-01-16T09:10:58.265Z</time>
      </trkpt>
      <trkpt lat="48.06071" lon="7.27969">
        <ele>407.6</ele>
        <time>2016-01-16T09:11:05.273Z</time>
      </trkpt>
      <trkpt lat="48.0606" lon="7.27927">
        <ele>408.9</ele>
        <time>2016-01-16T09:11:14.293Z</time>
      </trkpt>
      <trkpt lat="48.0605" lon="7.27888">
        <ele>407.9</ele>
        <time>2016-01-16T09:11:22.274Z</time>
      </trkpt>
      <trkpt lat="48.06035" lon="7.2785">
        <ele>408.8</ele>
        <time>2016-01-16T09:11:30.329Z</time>
      </trkpt>
      <trkpt lat="48.0602" lon="7.27818">
        <ele>410.6</ele>
        <time>2016-01-16T09:11:37.301Z</time>
      </trkpt>
      <trkpt lat="48.05992" lon="7.27799">
        <ele>410.3</ele>
        <time>2016-01-16T09:11:45.270Z</time>
      </trkpt>
      <trkpt lat="48.05971" lon="7.27808">
        <ele>407.3</ele>
        <time>2016-01-16T09:11:52.285Z</time>
      </trkpt>
      <trkpt lat="48.05946" lon="7.27797">
        <ele>406.7</ele>
        <time>2016-01-16T09:11:59.264Z</time>
      </trkpt>
      <trkpt lat="48.05927" lon="7.27797">
        <ele>404</ele>
        <time>2016-01-16T09:12:09.273Z</time>
      </trkpt>
      <trkpt lat="48.05907" lon="7.27811">
        <ele>400.6</ele>
        <time>2016-01-16T09:12:19.280Z</time>
      </trkpt>
      <trkpt lat="48.05893" lon="7.27794">
        <ele>399.4</ele>
        <time>2016-01-16T09:14:23.263Z</time>
      </trkpt>
      <trkpt lat="48.05901" lon="7.27788">
        <ele>401.8</ele>
        <time>2016-01-16T09:14:51.271Z</time>
      </trkpt>
      <trkpt lat="48.05913" lon="7.27786">
        <ele>403.3</ele>
        <time>2016-01-16T09:15:00.302Z</time>
      </trkpt>
      <trkpt lat="48.05909" lon="7.27782">
        <ele>411.9</ele>
        <time>2016-01-16T09:15:31.292Z</time>
      </trkpt>
      <trkpt lat="48.05901" lon="7.27771">
        <ele>415.1</ele>
        <time>2016-01-16T09:15:39.294Z</time>
      </trkpt>
      <trkpt lat="48.05898" lon="7.27758">
        <ele>417</ele>
        <time>2016-01-16T09:15:48.272Z</time>
      </trkpt>
      <trkpt lat="48.05904" lon="7.27748">
        <ele>421</ele>
        <time>2016-01-16T09:16:10.286Z</time>
      </trkpt>
      <trkpt lat="48.05913" lon="7.27748">
        <ele>422.6</ele>
        <time>2016-01-16T09:16:22.301Z</time>
      </trkpt>
      <trkpt lat="48.05923" lon="7.27748">
        <ele>425.2</ele>
        <time>2016-01-16T09:16:30.328Z</time>
      </trkpt>
      <trkpt lat="48.05931" lon="7.27744">
        <ele>422.9</ele>
        <time>2016-01-16T09:16:50.280Z</time>
      </trkpt>
      <trkpt lat="48.05928" lon="7.27731">
        <ele>420.1</ele>
        <time>2016-01-16T09:17:16.272Z</time>
      </trkpt>
      <trkpt lat="48.0594" lon="7.27732">
        <ele>423.5</ele>
        <time>2016-01-16T09:17:38.284Z</time>
      </trkpt>
      <trkpt lat="48.05951" lon="7.27737">
        <ele>427.6</ele>
        <time>2016-01-16T09:17:46.298Z</time>
      </trkpt>
      <trkpt lat="48.05947" lon="7.2771">
        <ele>435.1</ele>
        <time>2016-01-16T09:18:51.289Z</time>
      </trkpt>
      <trkpt lat="48.0594" lon="7.27699">
        <ele>435.7</ele>
        <time>2016-01-16T09:18:59.267Z</time>
      </trkpt>
      <trkpt lat="48.05935" lon="7.27688">
        <ele>436.2</ele>
        <time>2016-01-16T09:19:08.277Z</time>
      </trkpt>
      <trkpt lat="48.05929" lon="7.27679">
        <ele>441.4</ele>
        <time>2016-01-16T09:19:20.283Z</time>
      </trkpt>
      <trkpt lat="48.05923" lon="7.27668">
        <ele>442.7</ele>
        <time>2016-01-16T09:19:29.332Z</time>
      </trkpt>
      <trkpt lat="48.05919" lon="7.27651">
        <ele>443.9</ele>
        <time>2016-01-16T09:19:38.265Z</time>
      </trkpt>
      <trkpt lat="48.05915" lon="7.27641">
        <ele>439.4</ele>
        <time>2016-01-16T09:19:51.264Z</time>
      </trkpt>
      <trkpt lat="48.05908" lon="7.27627">
        <ele>443.3</ele>
        <time>2016-01-16T09:20:04.262Z</time>
      </trkpt>
      <trkpt lat="48.05903" lon="7.27616">
        <ele>447.1</ele>
        <time>2016-01-16T09:20:17.302Z</time>
      </trkpt>
      <trkpt lat="48.05898" lon="7.27601">
        <ele>449.1</ele>
        <time>2016-01-16T09:20:26.310Z</time>
      </trkpt>
      <trkpt lat="48.05892" lon="7.27579">
        <ele>446.7</ele>
        <time>2016-01-16T09:20:37.339Z</time>
      </trkpt>
      <trkpt lat="48.059" lon="7.27574">
        <ele>451.3</ele>
        <time>2016-01-16T09:21:01.282Z</time>
      </trkpt>
      <trkpt lat="48.0591" lon="7.27575">
        <ele>453.7</ele>
        <time>2016-01-16T09:21:10.279Z</time>
      </trkpt>
      <trkpt lat="48.05928" lon="7.2758">
        <ele>460.6</ele>
        <time>2016-01-16T09:21:52.296Z</time>
      </trkpt>
      <trkpt lat="48.05935" lon="7.27587">
        <ele>464</ele>
        <time>2016-01-16T09:22:03.261Z</time>
      </trkpt>
      <trkpt lat="48.05944" lon="7.2759">
        <ele>467.2</ele>
        <time>2016-01-16T09:22:10.285Z</time>
      </trkpt>
      <trkpt lat="48.05953" lon="7.27591">
        <ele>471.7</ele>
        <time>2016-01-16T09:22:22.287Z</time>
      </trkpt>
      <trkpt lat="48.05945" lon="7.27563">
        <ele>470.9</ele>
        <time>2016-01-16T09:23:22.313Z</time>
      </trkpt>
      <trkpt lat="48.05937" lon="7.27551">
        <ele>471.5</ele>
        <time>2016-01-16T09:23:30.263Z</time>
      </trkpt>
      <trkpt lat="48.05927" lon="7.27538">
        <ele>474.8</ele>
        <time>2016-01-16T09:23:38.296Z</time>
      </trkpt>
      <trkpt lat="48.0592" lon="7.2752">
        <ele>477.7</ele>
        <time>2016-01-16T09:23:46.287Z</time>
      </trkpt>
      <trkpt lat="48.05915" lon="7.27505">
        <ele>479.1</ele>
        <time>2016-01-16T09:23:53.283Z</time>
      </trkpt>
      <trkpt lat="48.05909" lon="7.27491">
        <ele>479.5</ele>
        <time>2016-01-16T09:24:00.269Z</time>
      </trkpt>
      <trkpt lat="48.05896" lon="7.27478">
        <ele>482.8</ele>
        <time>2016-01-16T09:24:11.328Z</time>
      </trkpt>
      <trkpt lat="48.05886" lon="7.27469">
        <ele>486.7</ele>
        <time>2016-01-16T09:24:20.310Z</time>
      </trkpt>
      <trkpt lat="48.05872" lon="7.27458">
        <ele>485.7</ele>
        <time>2016-01-16T09:24:31.277Z</time>
      </trkpt>
      <trkpt lat="48.05857" lon="7.27454">
        <ele>485.8</ele>
        <time>2016-01-16T09:24:39.302Z</time>
      </trkpt>
      <trkpt lat="48.05846" lon="7.27447">
        <ele>486.1</ele>
        <time>2016-01-16T09:24:46.298Z</time>
      </trkpt>
      <trkpt lat="48.05835" lon="7.27441">
        <ele>486.8</ele>
        <time>2016-01-16T09:24:53.269Z</time>
      </trkpt>
      <trkpt lat="48.05825" lon="7.27433">
        <ele>488.9</ele>
        <time>2016-01-16T09:25:00.298Z</time>
      </trkpt>
      <trkpt lat="48.05812" lon="7.27426">
        <ele>488.8</ele>
        <time>2016-01-16T09:25:08.296Z</time>
      </trkpt>
      <trkpt lat="48.05804" lon="7.27413">
        <ele>489.9</ele>
        <time>2016-01-16T09:25:15.266Z</time>
      </trkpt>
      <trkpt lat="48.05792" lon="7.27406">
        <ele>490.1</ele>
        <time>2016-01-16T09:25:22.290Z</time>
      </trkpt>
      <trkpt lat="48.058" lon="7.27398">
        <ele>492.8</ele>
        <time>2016-01-16T09:25:38.308Z</time>
      </trkpt>
      <trkpt lat="48.05809" lon="7.27398">
        <ele>495.8</ele>
        <time>2016-01-16T09:25:46.293Z</time>
      </trkpt>
      <trkpt lat="48.05818" lon="7.27398">
        <ele>497.7</ele>
        <time>2016-01-16T09:25:56.268Z</time>
      </trkpt>
      <trkpt lat="48.05832" lon="7.27398">
        <ele>499.5</ele>
        <time>2016-01-16T09:26:05.267Z</time>
      </trkpt>
      <trkpt lat="48.05843" lon="7.27394">
        <ele>498.6</ele>
        <time>2016-01-16T09:26:14.266Z</time>
      </trkpt>
      <trkpt lat="48.05855" lon="7.27388">
        <ele>501.2</ele>
        <time>2016-01-16T09:26:22.274Z</time>
      </trkpt>
      <trkpt lat="48.05868" lon="7.27388">
        <ele>503.2</ele>
        <time>2016-01-16T09:26:31.270Z</time>
      </trkpt>
      <trkpt lat="48.05882" lon="7.27388">
        <ele>506.4</ele>
        <time>2016-01-16T09:26:40.275Z</time>
      </trkpt>
      <trkpt lat="48.05894" lon="7.27388">
        <ele>504.2</ele>
        <time>2016-01-16T09:26:48.297Z</time>
      </trkpt>
      <trkpt lat="48.05895" lon="7.27374">
        <ele>505.4</ele>
        <time>2016-01-16T09:26:56.315Z</time>
      </trkpt>
      <trkpt lat="48.05888" lon="7.27365">
        <ele>508</ele>
        <time>2016-01-16T09:27:04.259Z</time>
      </trkpt>
      <trkpt lat="48.05881" lon="7.27355">
        <ele>508</ele>
        <time>2016-01-16T09:27:14.344Z</time>
      </trkpt>
      <trkpt lat="48.05875" lon="7.27341">
        <ele>509.3</ele>
        <time>2016-01-16T09:27:22.308Z</time>
      </trkpt>
      <trkpt lat="48.05867" lon="7.27334">
        <ele>508.2</ele>
        <time>2016-01-16T09:27:31.324Z</time>
      </trkpt>
      <trkpt lat="48.05858" lon="7.27328">
        <ele>510.2</ele>
        <time>2016-01-16T09:27:40.284Z</time>
      </trkpt>
      <trkpt lat="48.05851" lon="7.27321">
        <ele>515.4</ele>
        <time>2016-01-16T09:27:48.321Z</time>
      </trkpt>
      <trkpt lat="48.05844" lon="7.27314">
        <ele>519</ele>
        <time>2016-01-16T09:27:57.315Z</time>
      </trkpt>
      <trkpt lat="48.05838" lon="7.27304">
        <ele>516.9</ele>
        <time>2016-01-16T09:28:04.276Z</time>
      </trkpt>
      <trkpt lat="48.05829" lon="7.27291">
        <ele>517.8</ele>
        <time>2016-01-16T09:28:12.287Z</time>
      </trkpt>
      <trkpt lat="48.05823" lon="7.2728">
        <ele>520</ele>
        <time>2016-01-16T09:28:21.294Z</time>
      </trkpt>
      <trkpt lat="48.05813" lon="7.2727">
        <ele>520</ele>
        <time>2016-01-16T09:28:30.261Z</time>
      </trkpt>
      <trkpt lat="48.05804" lon="7.27265">
        <ele>519.8</ele>
        <time>2016-01-16T09:28:38.292Z</time>
      </trkpt>
      <trkpt lat="48.05791" lon="7.27267">
        <ele>520.5</ele>
        <time>2016-01-16T09:28:46.304Z</time>
      </trkpt>
      <trkpt lat="48.05781" lon="7.27265">
        <ele>524.2</ele>
        <time>2016-01-16T09:28:54.309Z</time>
      </trkpt>
      <trkpt lat="48.05772" lon="7.2726">
        <ele>526.5</ele>
        <time>2016-01-16T09:29:02.338Z</time>
      </trkpt>
      <trkpt lat="48.05763" lon="7.27253">
        <ele>529.7</ele>
        <time>2016-01-16T09:29:11.354Z</time>
      </trkpt>
      <trkpt lat="48.05757" lon="7.27244">
        <ele>531</ele>
        <time>2016-01-16T09:29:21.297Z</time>
      </trkpt>
      <trkpt lat="48.05748" lon="7.27232">
        <ele>531.5</ele>
        <time>2016-01-16T09:29:31.281Z</time>
      </trkpt>
      <trkpt lat="48.05742" lon="7.2722">
        <ele>531.4</ele>
        <time>2016-01-16T09:29:40.296Z</time>
      </trkpt>
      <trkpt lat="48.05733" lon="7.27215">
        <ele>533.8</ele>
        <time>2016-01-16T09:29:48.298Z</time>
      </trkpt>
      <trkpt lat="48.05728" lon="7.27204">
        <ele>534.6</ele>
        <time>2016-01-16T09:29:55.338Z</time>
      </trkpt>
      <trkpt lat="48.05718" lon="7.27201">
        <ele>531.9</ele>
        <time>2016-01-16T09:30:08.278Z</time>
      </trkpt>
      <trkpt lat="48.05703" lon="7.27209">
        <ele>534.4</ele>
        <time>2016-01-16T09:30:20.297Z</time>
      </trkpt>
      <trkpt lat="48.05692" lon="7.27217">
        <ele>535.1</ele>
        <time>2016-01-16T09:30:29.284Z</time>
      </trkpt>
      <trkpt lat="48.05681" lon="7.27225">
        <ele>537.5</ele>
        <time>2016-01-16T09:30:44.265Z</time>
      </trkpt>
      <trkpt lat="48.05673" lon="7.27233">
        <ele>543.8</ele>
        <time>2016-01-16T09:31:02.284Z</time>
      </trkpt>
      <trkpt lat="48.05665" lon="7.2724">
        <ele>547.2</ele>
        <time>2016-01-16T09:31:08.295Z</time>
      </trkpt>
      <trkpt lat="48.05656" lon="7.27249">
        <ele>552.1</ele>
        <time>2016-01-16T09:31:16.262Z</time>
      </trkpt>
      <trkpt lat="48.05645" lon="7.27259">
        <ele>555.8</ele>
        <time>2016-01-16T09:31:26.263Z</time>
      </trkpt>
      <trkpt lat="48.05636" lon="7.27259">
        <ele>558.4</ele>
        <time>2016-01-16T09:31:33.295Z</time>
      </trkpt>
      <trkpt lat="48.05625" lon="7.27252">
        <ele>562</ele>
        <time>2016-01-16T09:31:42.295Z</time>
      </trkpt>
      <trkpt lat="48.05617" lon="7.27245">
        <ele>559.8</ele>
        <time>2016-01-16T09:31:51.299Z</time>
      </trkpt>
      <trkpt lat="48.05611" lon="7.27234">
        <ele>557.9</ele>
        <time>2016-01-16T09:31:59.283Z</time>
      </trkpt>
      <trkpt lat="48.05605" lon="7.27224">
        <ele>558.9</ele>
        <time>2016-01-16T09:32:08.338Z</time>
      </trkpt>
      <trkpt lat="48.05597" lon="7.27216">
        <ele>560.5</ele>
        <time>2016-01-16T09:32:17.296Z</time>
      </trkpt>
      <trkpt lat="48.05588" lon="7.27216">
        <ele>561.7</ele>
        <time>2016-01-16T09:32:26.284Z</time>
      </trkpt>
      <trkpt lat="48.05578" lon="7.27218">
        <ele>563.7</ele>
        <time>2016-01-16T09:32:34.298Z</time>
      </trkpt>
      <trkpt lat="48.05565" lon="7.27223">
        <ele>563.6</ele>
        <time>2016-01-16T09:32:43.266Z</time>
      </trkpt>
      <trkpt lat="48.05548" lon="7.27228">
        <ele>564.8</ele>
        <time>2016-01-16T09:32:52.265Z</time>
      </trkpt>
      <trkpt lat="48.05534" lon="7.27226">
        <ele>567.2</ele>
        <time>2016-01-16T09:33:00.347Z</time>
      </trkpt>
      <trkpt lat="48.0552" lon="7.27222">
        <ele>567.7</ele>
        <time>2016-01-16T09:33:08.287Z</time>
      </trkpt>
      <trkpt lat="48.0551" lon="7.27212">
        <ele>567.2</ele>
        <time>2016-01-16T09:33:15.288Z</time>
      </trkpt>
      <trkpt lat="48.05506" lon="7.2721">
        <ele>554.1</ele>
        <time>2016-01-16T09:33:18.295Z</time>
      </trkpt>
      <trkpt lat="48.055" lon="7.27198">
        <ele>549.1</ele>
        <time>2016-01-16T09:33:25.280Z</time>
      </trkpt>
      <trkpt lat="48.05499" lon="7.27194">
        <ele>559</ele>
        <time>2016-01-16T09:33:28.308Z</time>
      </trkpt>
      <trkpt lat="48.05496" lon="7.27186">
        <ele>567.9</ele>
        <time>2016-01-16T09:33:33.322Z</time>
      </trkpt>
      <trkpt lat="48.0549" lon="7.27174">
        <ele>570.4</ele>
        <time>2016-01-16T09:33:41.278Z</time>
      </trkpt>
      <trkpt lat="48.05483" lon="7.27162">
        <ele>571.8</ele>
        <time>2016-01-16T09:33:49.267Z</time>
      </trkpt>
      <trkpt lat="48.05474" lon="7.2715">
        <ele>573.5</ele>
        <time>2016-01-16T09:33:59.290Z</time>
      </trkpt>
      <trkpt lat="48.05471" lon="7.27136">
        <ele>574.7</ele>
        <time>2016-01-16T09:34:07.300Z</time>
      </trkpt>
      <trkpt lat="48.05468" lon="7.27124">
        <ele>577.6</ele>
        <time>2016-01-16T09:34:19.290Z</time>
      </trkpt>
      <trkpt lat="48.05469" lon="7.27108">
        <ele>579.6</ele>
        <time>2016-01-16T09:34:29.278Z</time>
      </trkpt>
      <trkpt lat="48.05466" lon="7.27079">
        <ele>583.5</ele>
        <time>2016-01-16T09:36:18.340Z</time>
      </trkpt>
      <trkpt lat="48.05467" lon="7.27059">
        <ele>583.1</ele>
        <time>2016-01-16T09:36:27.369Z</time>
      </trkpt>
      <trkpt lat="48.05469" lon="7.27034">
        <ele>582</ele>
        <time>2016-01-16T09:36:36.325Z</time>
      </trkpt>
      <trkpt lat="48.05468" lon="7.27013">
        <ele>584.2</ele>
        <time>2016-01-16T09:36:44.287Z</time>
      </trkpt>
      <trkpt lat="48.05464" lon="7.26992">
        <ele>584.4</ele>
        <time>2016-01-16T09:36:52.344Z</time>
      </trkpt>
      <trkpt lat="48.05461" lon="7.2697">
        <ele>585.7</ele>
        <time>2016-01-16T09:37:00.286Z</time>
      </trkpt>
      <trkpt lat="48.05461" lon="7.26952">
        <ele>585.9</ele>
        <time>2016-01-16T09:37:07.280Z</time>
      </trkpt>
      <trkpt lat="48.05457" lon="7.26935">
        <ele>588</ele>
        <time>2016-01-16T09:37:14.273Z</time>
      </trkpt>
      <trkpt lat="48.05451" lon="7.26922">
        <ele>591.4</ele>
        <time>2016-01-16T09:37:22.272Z</time>
      </trkpt>
      <trkpt lat="48.05447" lon="7.26909">
        <ele>592.4</ele>
        <time>2016-01-16T09:37:28.274Z</time>
      </trkpt>
      <trkpt lat="48.05443" lon="7.26896">
        <ele>593.5</ele>
        <time>2016-01-16T09:37:36.265Z</time>
      </trkpt>
      <trkpt lat="48.0544" lon="7.26877">
        <ele>594.9</ele>
        <time>2016-01-16T09:37:45.279Z</time>
      </trkpt>
      <trkpt lat="48.05456" lon="7.26879">
        <ele>595.3</ele>
        <time>2016-01-16T09:37:55.281Z</time>
      </trkpt>
      <trkpt lat="48.05473" lon="7.26888">
        <ele>594.9</ele>
        <time>2016-01-16T09:38:03.283Z</time>
      </trkpt>
      <trkpt lat="48.05489" lon="7.26906">
        <ele>592</ele>
        <time>2016-01-16T09:38:11.268Z</time>
      </trkpt>
      <trkpt lat="48.05505" lon="7.26925">
        <ele>594.3</ele>
        <time>2016-01-16T09:38:19.299Z</time>
      </trkpt>
      <trkpt lat="48.0552" lon="7.26943">
        <ele>595.4</ele>
        <time>2016-01-16T09:38:27.263Z</time>
      </trkpt>
      <trkpt lat="48.05537" lon="7.26954">
        <ele>596.6</ele>
        <time>2016-01-16T09:38:35.262Z</time>
      </trkpt>
      <trkpt lat="48.05566" lon="7.26965">
        <ele>597.9</ele>
        <time>2016-01-16T09:38:44.343Z</time>
      </trkpt>
      <trkpt lat="48.05601" lon="7.26971">
        <ele>600.6</ele>
        <time>2016-01-16T09:38:52.318Z</time>
      </trkpt>
      <trkpt lat="48.05635" lon="7.26978">
        <ele>600.7</ele>
        <time>2016-01-16T09:38:59.312Z</time>
      </trkpt>
      <trkpt lat="48.05669" lon="7.26955">
        <ele>596.8</ele>
        <time>2016-01-16T09:39:07.277Z</time>
      </trkpt>
      <trkpt lat="48.05703" lon="7.2691">
        <ele>592.9</ele>
        <time>2016-01-16T09:39:15.273Z</time>
      </trkpt>
      <trkpt lat="48.05729" lon="7.2685">
        <ele>586.6</ele>
        <time>2016-01-16T09:39:23.267Z</time>
      </trkpt>
      <trkpt lat="48.0575" lon="7.26799">
        <ele>586</ele>
        <time>2016-01-16T09:39:30.267Z</time>
      </trkpt>
      <trkpt lat="48.05773" lon="7.26788">
        <ele>584.4</ele>
        <time>2016-01-16T09:39:39.287Z</time>
      </trkpt>
      <trkpt lat="48.05788" lon="7.268">
        <ele>585.7</ele>
        <time>2016-01-16T09:39:47.312Z</time>
      </trkpt>
      <trkpt lat="48.05795" lon="7.26809">
        <ele>587.4</ele>
        <time>2016-01-16T09:39:55.274Z</time>
      </trkpt>
      <trkpt lat="48.05804" lon="7.26821">
        <ele>589.7</ele>
        <time>2016-01-16T09:40:03.276Z</time>
      </trkpt>
      <trkpt lat="48.05814" lon="7.26833">
        <ele>590</ele>
        <time>2016-01-16T09:40:10.317Z</time>
      </trkpt>
      <trkpt lat="48.05822" lon="7.26846">
        <ele>590.9</ele>
        <time>2016-01-16T09:40:18.264Z</time>
      </trkpt>
      <trkpt lat="48.05829" lon="7.26857">
        <ele>593.3</ele>
        <time>2016-01-16T09:40:25.262Z</time>
      </trkpt>
      <trkpt lat="48.05836" lon="7.26869">
        <ele>595.5</ele>
        <time>2016-01-16T09:40:32.303Z</time>
      </trkpt>
      <trkpt lat="48.05844" lon="7.26879">
        <ele>597</ele>
        <time>2016-01-16T09:40:39.294Z</time>
      </trkpt>
      <trkpt lat="48.05853" lon="7.2689">
        <ele>598.5</ele>
        <time>2016-01-16T09:40:47.265Z</time>
      </trkpt>
      <trkpt lat="48.05863" lon="7.26902">
        <ele>599.5</ele>
        <time>2016-01-16T09:40:55.321Z</time>
      </trkpt>
      <trkpt lat="48.0587" lon="7.26913">
        <ele>600.5</ele>
        <time>2016-01-16T09:41:02.289Z</time>
      </trkpt>
      <trkpt lat="48.05876" lon="7.26926">
        <ele>601.9</ele>
        <time>2016-01-16T09:41:09.336Z</time>
      </trkpt>
      <trkpt lat="48.05883" lon="7.26941">
        <ele>603.1</ele>
        <time>2016-01-16T09:41:17.273Z</time>
      </trkpt>
      <trkpt lat="48.05892" lon="7.26954">
        <ele>605.6</ele>
        <time>2016-01-16T09:41:25.302Z</time>
      </trkpt>
      <trkpt lat="48.05899" lon="7.26969">
        <ele>606.1</ele>
        <time>2016-01-16T09:41:32.293Z</time>
      </trkpt>
      <trkpt lat="48.05906" lon="7.26985">
        <ele>607</ele>
        <time>2016-01-16T09:41:40.306Z</time>
      </trkpt>
      <trkpt lat="48.05911" lon="7.26999">
        <ele>607.3</ele>
        <time>2016-01-16T09:41:47.310Z</time>
      </trkpt>
      <trkpt lat="48.05916" lon="7.2701">
        <ele>608.2</ele>
        <time>2016-01-16T09:41:54.317Z</time>
      </trkpt>
      <trkpt lat="48.05924" lon="7.27019">
        <ele>608.9</ele>
        <time>2016-01-16T09:42:01.317Z</time>
      </trkpt>
      <trkpt lat="48.05934" lon="7.27028">
        <ele>610</ele>
        <time>2016-01-16T09:42:10.315Z</time>
      </trkpt>
      <trkpt lat="48.05942" lon="7.27033">
        <ele>613.2</ele>
        <time>2016-01-16T09:42:19.342Z</time>
      </trkpt>
      <trkpt lat="48.05952" lon="7.27034">
        <ele>615</ele>
        <time>2016-01-16T09:42:31.269Z</time>
      </trkpt>
      <trkpt lat="48.05963" lon="7.27038">
        <ele>616.9</ele>
        <time>2016-01-16T09:42:40.312Z</time>
      </trkpt>
      <trkpt lat="48.05973" lon="7.27036">
        <ele>616.5</ele>
        <time>2016-01-16T09:42:48.313Z</time>
      </trkpt>
      <trkpt lat="48.0598" lon="7.27027">
        <ele>617.6</ele>
        <time>2016-01-16T09:42:57.280Z</time>
      </trkpt>
      <trkpt lat="48.05983" lon="7.27013">
        <ele>619.4</ele>
        <time>2016-01-16T09:43:21.358Z</time>
      </trkpt>
      <trkpt lat="48.05992" lon="7.27005">
        <ele>622.4</ele>
        <time>2016-01-16T09:43:31.271Z</time>
      </trkpt>
      <trkpt lat="48.06" lon="7.26997">
        <ele>620.5</ele>
        <time>2016-01-16T09:43:39.303Z</time>
      </trkpt>
      <trkpt lat="48.06014" lon="7.26991">
        <ele>621.4</ele>
        <time>2016-01-16T09:43:47.263Z</time>
      </trkpt>
      <trkpt lat="48.05988" lon="7.27013">
        <ele>621.7</ele>
        <time>2016-01-16T09:47:25.288Z</time>
      </trkpt>
      <trkpt lat="48.05972" lon="7.27039">
        <ele>618.5</ele>
        <time>2016-01-16T09:47:32.294Z</time>
      </trkpt>
      <trkpt lat="48.05944" lon="7.27036">
        <ele>616.5</ele>
        <time>2016-01-16T09:47:41.278Z</time>
      </trkpt>
      <trkpt lat="48.05917" lon="7.27017">
        <ele>611.7</ele>
        <time>2016-01-16T09:47:49.297Z</time>
      </trkpt>
      <trkpt lat="48.05905" lon="7.26988">
        <ele>608.7</ele>
        <time>2016-01-16T09:47:56.286Z</time>
      </trkpt>
      <trkpt lat="48.05886" lon="7.26948">
        <ele>605.8</ele>
        <time>2016-01-16T09:48:04.326Z</time>
      </trkpt>
      <trkpt lat="48.05873" lon="7.26927">
        <ele>603.2</ele>
        <time>2016-01-16T09:48:10.312Z</time>
      </trkpt>
      <trkpt lat="48.05859" lon="7.26895">
        <ele>600.9</ele>
        <time>2016-01-16T09:48:31.283Z</time>
      </trkpt>
      <trkpt lat="48.05835" lon="7.26869">
        <ele>597.1</ele>
        <time>2016-01-16T09:48:39.292Z</time>
      </trkpt>
      <trkpt lat="48.05805" lon="7.26831">
        <ele>591.9</ele>
        <time>2016-01-16T09:48:47.315Z</time>
      </trkpt>
      <trkpt lat="48.05784" lon="7.268">
        <ele>588.7</ele>
        <time>2016-01-16T09:48:54.312Z</time>
      </trkpt>
      <trkpt lat="48.05774" lon="7.26792">
        <ele>587</ele>
        <time>2016-01-16T09:49:00.306Z</time>
      </trkpt>
      <trkpt lat="48.05758" lon="7.26795">
        <ele>586.8</ele>
        <time>2016-01-16T09:49:13.329Z</time>
      </trkpt>
      <trkpt lat="48.05745" lon="7.26827">
        <ele>581.8</ele>
        <time>2016-01-16T09:49:29.329Z</time>
      </trkpt>
      <trkpt lat="48.05734" lon="7.26846">
        <ele>582.2</ele>
        <time>2016-01-16T09:49:36.299Z</time>
      </trkpt>
      <trkpt lat="48.05725" lon="7.26869">
        <ele>587.6</ele>
        <time>2016-01-16T09:49:44.319Z</time>
      </trkpt>
      <trkpt lat="48.05713" lon="7.26891">
        <ele>588.8</ele>
        <time>2016-01-16T09:49:52.344Z</time>
      </trkpt>
      <trkpt lat="48.05701" lon="7.26914">
        <ele>589.9</ele>
        <time>2016-01-16T09:50:00.280Z</time>
      </trkpt>
      <trkpt lat="48.05691" lon="7.26931">
        <ele>592.3</ele>
        <time>2016-01-16T09:50:07.280Z</time>
      </trkpt>
      <trkpt lat="48.05674" lon="7.26949">
        <ele>592.5</ele>
        <time>2016-01-16T09:50:16.355Z</time>
      </trkpt>
      <trkpt lat="48.05698" lon="7.26916">
        <ele>593.4</ele>
        <time>2016-01-16T09:51:05.286Z</time>
      </trkpt>
      <trkpt lat="48.05724" lon="7.26864">
        <ele>591</ele>
        <time>2016-01-16T09:51:13.268Z</time>
      </trkpt>
      <trkpt lat="48.05743" lon="7.26825">
        <ele>586.9</ele>
        <time>2016-01-16T09:51:20.303Z</time>
      </trkpt>
      <trkpt lat="48.05747" lon="7.26799">
        <ele>587</ele>
        <time>2016-01-16T09:51:26.307Z</time>
      </trkpt>
      <trkpt lat="48.05742" lon="7.2678">
        <ele>587.5</ele>
        <time>2016-01-16T09:51:34.308Z</time>
      </trkpt>
      <trkpt lat="48.05713" lon="7.26759">
        <ele>589</ele>
        <time>2016-01-16T09:51:46.342Z</time>
      </trkpt>
      <trkpt lat="48.05699" lon="7.26729">
        <ele>590.4</ele>
        <time>2016-01-16T09:51:54.314Z</time>
      </trkpt>
      <trkpt lat="48.05691" lon="7.267">
        <ele>589.8</ele>
        <time>2016-01-16T09:52:02.287Z</time>
      </trkpt>
      <trkpt lat="48.05675" lon="7.26669">
        <ele>587.3</ele>
        <time>2016-01-16T09:52:11.315Z</time>
      </trkpt>
      <trkpt lat="48.05668" lon="7.2665">
        <ele>586.8</ele>
        <time>2016-01-16T09:52:18.271Z</time>
      </trkpt>
      <trkpt lat="48.0565" lon="7.26635">
        <ele>585.7</ele>
        <time>2016-01-16T09:52:27.279Z</time>
      </trkpt>
      <trkpt lat="48.05628" lon="7.26621">
        <ele>587</ele>
        <time>2016-01-16T09:52:35.283Z</time>
      </trkpt>
      <trkpt lat="48.05605" lon="7.26621">
        <ele>588.7</ele>
        <time>2016-01-16T09:52:43.291Z</time>
      </trkpt>
      <trkpt lat="48.05589" lon="7.26639">
        <ele>589.8</ele>
        <time>2016-01-16T09:52:52.295Z</time>
      </trkpt>
      <trkpt lat="48.05575" lon="7.26648">
        <ele>591.4</ele>
        <time>2016-01-16T09:53:00.296Z</time>
      </trkpt>
      <trkpt lat="48.0556" lon="7.26649">
        <ele>592.9</ele>
        <time>2016-01-16T09:53:07.317Z</time>
      </trkpt>
      <trkpt lat="48.05538" lon="7.26643">
        <ele>597.3</ele>
        <time>2016-01-16T09:53:16.317Z</time>
      </trkpt>
      <trkpt lat="48.0552" lon="7.26633">
        <ele>595.4</ele>
        <time>2016-01-16T09:53:23.283Z</time>
      </trkpt>
      <trkpt lat="48.05502" lon="7.26615">
        <ele>595</ele>
        <time>2016-01-16T09:53:31.317Z</time>
      </trkpt>
      <trkpt lat="48.05481" lon="7.26592">
        <ele>595</ele>
        <time>2016-01-16T09:53:41.290Z</time>
      </trkpt>
      <trkpt lat="48.0546" lon="7.26579">
        <ele>594.2</ele>
        <time>2016-01-16T09:53:50.333Z</time>
      </trkpt>
      <trkpt lat="48.0545" lon="7.2656">
        <ele>595.4</ele>
        <time>2016-01-16T09:53:57.310Z</time>
      </trkpt>
      <trkpt lat="48.0544" lon="7.26537">
        <ele>593.1</ele>
        <time>2016-01-16T09:54:06.298Z</time>
      </trkpt>
      <trkpt lat="48.05425" lon="7.2652">
        <ele>590.7</ele>
        <time>2016-01-16T09:54:14.337Z</time>
      </trkpt>
      <trkpt lat="48.05408" lon="7.26504">
        <ele>589.5</ele>
        <time>2016-01-16T09:54:22.272Z</time>
      </trkpt>
      <trkpt lat="48.05394" lon="7.26489">
        <ele>592.5</ele>
        <time>2016-01-16T09:54:29.272Z</time>
      </trkpt>
      <trkpt lat="48.05381" lon="7.26475">
        <ele>594.9</ele>
        <time>2016-01-16T09:54:37.287Z</time>
      </trkpt>
      <trkpt lat="48.05365" lon="7.26481">
        <ele>598.1</ele>
        <time>2016-01-16T09:54:45.323Z</time>
      </trkpt>
      <trkpt lat="48.05352" lon="7.26499">
        <ele>599.2</ele>
        <time>2016-01-16T09:54:53.299Z</time>
      </trkpt>
      <trkpt lat="48.05344" lon="7.26526">
        <ele>602.4</ele>
        <time>2016-01-16T09:55:02.306Z</time>
      </trkpt>
      <trkpt lat="48.0533" lon="7.26538">
        <ele>602</ele>
        <time>2016-01-16T09:55:09.288Z</time>
      </trkpt>
      <trkpt lat="48.05304" lon="7.26541">
        <ele>602.8</ele>
        <time>2016-01-16T09:55:18.283Z</time>
      </trkpt>
      <trkpt lat="48.05286" lon="7.26494">
        <ele>603.2</ele>
        <time>2016-01-16T09:55:29.286Z</time>
      </trkpt>
      <trkpt lat="48.05287" lon="7.26467">
        <ele>604.1</ele>
        <time>2016-01-16T09:55:35.295Z</time>
      </trkpt>
      <trkpt lat="48.05288" lon="7.26442">
        <ele>602.9</ele>
        <time>2016-01-16T09:55:43.274Z</time>
      </trkpt>
      <trkpt lat="48.05288" lon="7.26466">
        <ele>596.8</ele>
        <time>2016-01-16T09:56:02.269Z</time>
      </trkpt>
      <trkpt lat="48.05283" lon="7.26482">
        <ele>599</ele>
        <time>2016-01-16T09:56:11.275Z</time>
      </trkpt>
      <trkpt lat="48.05274" lon="7.26486">
        <ele>600.3</ele>
        <time>2016-01-16T09:56:20.282Z</time>
      </trkpt>
      <trkpt lat="48.05262" lon="7.26488">
        <ele>599.4</ele>
        <time>2016-01-16T09:56:28.279Z</time>
      </trkpt>
      <trkpt lat="48.05251" lon="7.26489">
        <ele>598.5</ele>
        <time>2016-01-16T09:56:37.271Z</time>
      </trkpt>
      <trkpt lat="48.05241" lon="7.26487">
        <ele>597.9</ele>
        <time>2016-01-16T09:56:44.323Z</time>
      </trkpt>
      <trkpt lat="48.05225" lon="7.26489">
        <ele>599</ele>
        <time>2016-01-16T09:56:52.328Z</time>
      </trkpt>
      <trkpt lat="48.05207" lon="7.26491">
        <ele>599.2</ele>
        <time>2016-01-16T09:57:01.326Z</time>
      </trkpt>
      <trkpt lat="48.0519" lon="7.26485">
        <ele>601</ele>
        <time>2016-01-16T09:57:09.331Z</time>
      </trkpt>
      <trkpt lat="48.05183" lon="7.26477">
        <ele>600.8</ele>
        <time>2016-01-16T09:57:16.296Z</time>
      </trkpt>
      <trkpt lat="48.05163" lon="7.26471">
        <ele>600.6</ele>
        <time>2016-01-16T09:57:24.268Z</time>
      </trkpt>
      <trkpt lat="48.05145" lon="7.26465">
        <ele>600.9</ele>
        <time>2016-01-16T09:57:32.310Z</time>
      </trkpt>
      <trkpt lat="48.05129" lon="7.2646">
        <ele>602</ele>
        <time>2016-01-16T09:57:39.286Z</time>
      </trkpt>
      <trkpt lat="48.05119" lon="7.26471">
        <ele>602.6</ele>
        <time>2016-01-16T09:57:49.341Z</time>
      </trkpt>
      <trkpt lat="48.05111" lon="7.2648">
        <ele>604.2</ele>
        <time>2016-01-16T09:57:57.302Z</time>
      </trkpt>
      <trkpt lat="48.05101" lon="7.26496">
        <ele>606.4</ele>
        <time>2016-01-16T09:58:06.300Z</time>
      </trkpt>
      <trkpt lat="48.0509" lon="7.2652">
        <ele>606.1</ele>
        <time>2016-01-16T09:58:15.368Z</time>
      </trkpt>
      <trkpt lat="48.05078" lon="7.26535">
        <ele>606</ele>
        <time>2016-01-16T09:58:23.276Z</time>
      </trkpt>
      <trkpt lat="48.05073" lon="7.26547">
        <ele>607</ele>
        <time>2016-01-16T09:58:37.345Z</time>
      </trkpt>
      <trkpt lat="48.05068" lon="7.26559">
        <ele>607.4</ele>
        <time>2016-01-16T09:59:00.305Z</time>
      </trkpt>
      <trkpt lat="48.05063" lon="7.26571">
        <ele>610.6</ele>
        <time>2016-01-16T09:59:19.274Z</time>
      </trkpt>
      <trkpt lat="48.05057" lon="7.26582">
        <ele>613.4</ele>
        <time>2016-01-16T09:59:27.311Z</time>
      </trkpt>
      <trkpt lat="48.05052" lon="7.26611">
        <ele>617.4</ele>
        <time>2016-01-16T10:01:02.297Z</time>
      </trkpt>
      <trkpt lat="48.05049" lon="7.26623">
        <ele>620.4</ele>
        <time>2016-01-16T10:01:15.271Z</time>
      </trkpt>
      <trkpt lat="48.05049" lon="7.26652">
        <ele>614.2</ele>
        <time>2016-01-16T10:02:43.289Z</time>
      </trkpt>
      <trkpt lat="48.05053" lon="7.26665">
        <ele>613.1</ele>
        <time>2016-01-16T10:02:52.283Z</time>
      </trkpt>
      <trkpt lat="48.05057" lon="7.26679">
        <ele>614.3</ele>
        <time>2016-01-16T10:03:01.307Z</time>
      </trkpt>
      <trkpt lat="48.05056" lon="7.26709">
        <ele>613.3</ele>
        <time>2016-01-16T10:03:40.305Z</time>
      </trkpt>
      <trkpt lat="48.05059" lon="7.26729">
        <ele>612.9</ele>
        <time>2016-01-16T10:03:51.296Z</time>
      </trkpt>
      <trkpt lat="48.05054" lon="7.26742">
        <ele>614.1</ele>
        <time>2016-01-16T10:04:18.334Z</time>
      </trkpt>
      <trkpt lat="48.05039" lon="7.2674">
        <ele>612.6</ele>
        <time>2016-01-16T10:04:27.288Z</time>
      </trkpt>
      <trkpt lat="48.0503" lon="7.26733">
        <ele>611.2</ele>
        <time>2016-01-16T10:04:33.269Z</time>
      </trkpt>
      <trkpt lat="48.05025" lon="7.26721">
        <ele>612.3</ele>
        <time>2016-01-16T10:04:53.304Z</time>
      </trkpt>
      <trkpt lat="48.05016" lon="7.26709">
        <ele>613.8</ele>
        <time>2016-01-16T10:05:02.301Z</time>
      </trkpt>
      <trkpt lat="48.05007" lon="7.2671">
        <ele>611.6</ele>
        <time>2016-01-16T10:05:12.313Z</time>
      </trkpt>
      <trkpt lat="48.05006" lon="7.26723">
        <ele>612.2</ele>
        <time>2016-01-16T10:05:26.282Z</time>
      </trkpt>
      <trkpt lat="48.05004" lon="7.2675">
        <ele>612.2</ele>
        <time>2016-01-16T10:05:35.279Z</time>
      </trkpt>
      <trkpt lat="48.05004" lon="7.26764">
        <ele>609.8</ele>
        <time>2016-01-16T10:05:43.276Z</time>
      </trkpt>
      <trkpt lat="48.04996" lon="7.26793">
        <ele>609.5</ele>
        <time>2016-01-16T10:05:56.305Z</time>
      </trkpt>
      <trkpt lat="48.04995" lon="7.26807">
        <ele>611.6</ele>
        <time>2016-01-16T10:06:03.300Z</time>
      </trkpt>
      <trkpt lat="48.04998" lon="7.26834">
        <ele>610.5</ele>
        <time>2016-01-16T10:06:26.299Z</time>
      </trkpt>
      <trkpt lat="48.05011" lon="7.26854">
        <ele>607.9</ele>
        <time>2016-01-16T10:06:33.288Z</time>
      </trkpt>
      <trkpt lat="48.0501" lon="7.26877">
        <ele>608.2</ele>
        <time>2016-01-16T10:06:41.280Z</time>
      </trkpt>
      <trkpt lat="48.05022" lon="7.26861">
        <ele>606.2</ele>
        <time>2016-01-16T10:06:55.290Z</time>
      </trkpt>
      <trkpt lat="48.05041" lon="7.26844">
        <ele>605.4</ele>
        <time>2016-01-16T10:07:04.268Z</time>
      </trkpt>
      <trkpt lat="48.05052" lon="7.26839">
        <ele>605.4</ele>
        <time>2016-01-16T10:07:11.320Z</time>
      </trkpt>
      <trkpt lat="48.05052" lon="7.26837">
        <ele>585.9</ele>
        <time>2016-01-16T10:07:21.271Z</time>
      </trkpt>
      <trkpt lat="48.05058" lon="7.26865">
        <ele>598</ele>
        <time>2016-01-16T10:07:53.305Z</time>
      </trkpt>
      <trkpt lat="48.05067" lon="7.26913">
        <ele>599.4</ele>
        <time>2016-01-16T10:08:03.277Z</time>
      </trkpt>
      <trkpt lat="48.0505" lon="7.26946">
        <ele>596.7</ele>
        <time>2016-01-16T10:08:11.309Z</time>
      </trkpt>
      <trkpt lat="48.05021" lon="7.26964">
        <ele>596.3</ele>
        <time>2016-01-16T10:08:20.328Z</time>
      </trkpt>
      <trkpt lat="48.05021" lon="7.2698">
        <ele>594.2</ele>
        <time>2016-01-16T10:08:28.264Z</time>
      </trkpt>
      <trkpt lat="48.05054" lon="7.26978">
        <ele>591.7</ele>
        <time>2016-01-16T10:08:36.353Z</time>
      </trkpt>
      <trkpt lat="48.05089" lon="7.26921">
        <ele>589.4</ele>
        <time>2016-01-16T10:08:45.302Z</time>
      </trkpt>
      <trkpt lat="48.05085" lon="7.26968">
        <ele>583.1</ele>
        <time>2016-01-16T10:08:58.284Z</time>
      </trkpt>
      <trkpt lat="48.05063" lon="7.2703">
        <ele>583</ele>
        <time>2016-01-16T10:09:06.303Z</time>
      </trkpt>
      <trkpt lat="48.05032" lon="7.27084">
        <ele>580.3</ele>
        <time>2016-01-16T10:09:14.272Z</time>
      </trkpt>
      <trkpt lat="48.05007" lon="7.2707">
        <ele>576.8</ele>
        <time>2016-01-16T10:09:21.305Z</time>
      </trkpt>
      <trkpt lat="48.0499" lon="7.27049">
        <ele>573.8</ele>
        <time>2016-01-16T10:09:29.343Z</time>
      </trkpt>
      <trkpt lat="48.05012" lon="7.27096">
        <ele>576.3</ele>
        <time>2016-01-16T10:10:08.288Z</time>
      </trkpt>
      <trkpt lat="48.05051" lon="7.27095">
        <ele>573.2</ele>
        <time>2016-01-16T10:10:16.274Z</time>
      </trkpt>
      <trkpt lat="48.05095" lon="7.2705">
        <ele>570.8</ele>
        <time>2016-01-16T10:10:24.316Z</time>
      </trkpt>
      <trkpt lat="48.05138" lon="7.26984">
        <ele>567.1</ele>
        <time>2016-01-16T10:10:32.304Z</time>
      </trkpt>
      <trkpt lat="48.05172" lon="7.26968">
        <ele>564</ele>
        <time>2016-01-16T10:10:38.314Z</time>
      </trkpt>
      <trkpt lat="48.0517" lon="7.26975">
        <ele>554</ele>
        <time>2016-01-16T10:11:03.268Z</time>
      </trkpt>
      <trkpt lat="48.05143" lon="7.27006">
        <ele>553.7</ele>
        <time>2016-01-16T10:11:14.312Z</time>
      </trkpt>
      <trkpt lat="48.05129" lon="7.27072">
        <ele>554.6</ele>
        <time>2016-01-16T10:11:23.319Z</time>
      </trkpt>
      <trkpt lat="48.05103" lon="7.27144">
        <ele>551.6</ele>
        <time>2016-01-16T10:11:31.310Z</time>
      </trkpt>
      <trkpt lat="48.0506" lon="7.27202">
        <ele>546.5</ele>
        <time>2016-01-16T10:11:39.307Z</time>
      </trkpt>
      <trkpt lat="48.05007" lon="7.27214">
        <ele>542.3</ele>
        <time>2016-01-16T10:11:47.327Z</time>
      </trkpt>
      <trkpt lat="48.04976" lon="7.27203">
        <ele>540.8</ele>
        <time>2016-01-16T10:11:53.319Z</time>
      </trkpt>
      <trkpt lat="48.04985" lon="7.27207">
        <ele>541.8</ele>
        <time>2016-01-16T10:12:05.305Z</time>
      </trkpt>
      <trkpt lat="48.05018" lon="7.2723">
        <ele>541.5</ele>
        <time>2016-01-16T10:12:21.332Z</time>
      </trkpt>
      <trkpt lat="48.05066" lon="7.27241">
        <ele>537</ele>
        <time>2016-01-16T10:12:29.308Z</time>
      </trkpt>
      <trkpt lat="48.05101" lon="7.27234">
        <ele>534.2</ele>
        <time>2016-01-16T10:12:36.286Z</time>
      </trkpt>
      <trkpt lat="48.05123" lon="7.27219">
        <ele>524.9</ele>
        <time>2016-01-16T10:12:53.310Z</time>
      </trkpt>
      <trkpt lat="48.05151" lon="7.27179">
        <ele>521.1</ele>
        <time>2016-01-16T10:13:01.359Z</time>
      </trkpt>
      <trkpt lat="48.05182" lon="7.27125">
        <ele>518.8</ele>
        <time>2016-01-16T10:13:09.294Z</time>
      </trkpt>
      <trkpt lat="48.05211" lon="7.27094">
        <ele>519.5</ele>
        <time>2016-01-16T10:13:16.358Z</time>
      </trkpt>
      <trkpt lat="48.05227" lon="7.27101">
        <ele>519.4</ele>
        <time>2016-01-16T10:13:24.376Z</time>
      </trkpt>
      <trkpt lat="48.05206" lon="7.27121">
        <ele>516.9</ele>
        <time>2016-01-16T10:13:35.356Z</time>
      </trkpt>
      <trkpt lat="48.05187" lon="7.27182">
        <ele>515.8</ele>
        <time>2016-01-16T10:13:44.339Z</time>
      </trkpt>
      <trkpt lat="48.05165" lon="7.27255">
        <ele>510.5</ele>
        <time>2016-01-16T10:13:52.339Z</time>
      </trkpt>
      <trkpt lat="48.05145" lon="7.27298">
        <ele>504.6</ele>
        <time>2016-01-16T10:13:59.354Z</time>
      </trkpt>
      <trkpt lat="48.05112" lon="7.27321">
        <ele>503.4</ele>
        <time>2016-01-16T10:14:07.363Z</time>
      </trkpt>
      <trkpt lat="48.05064" lon="7.27326">
        <ele>501.9</ele>
        <time>2016-01-16T10:14:15.342Z</time>
      </trkpt>
      <trkpt lat="48.05069" lon="7.27337">
        <ele>496.9</ele>
        <time>2016-01-16T10:14:45.319Z</time>
      </trkpt>
      <trkpt lat="48.05083" lon="7.27329">
        <ele>491.6</ele>
        <time>2016-01-16T10:14:55.360Z</time>
      </trkpt>
      <trkpt lat="48.05114" lon="7.27344">
        <ele>487.2</ele>
        <time>2016-01-16T10:15:05.324Z</time>
      </trkpt>
      <trkpt lat="48.0515" lon="7.27356">
        <ele>484</ele>
        <time>2016-01-16T10:15:13.320Z</time>
      </trkpt>
      <trkpt lat="48.0519" lon="7.27299">
        <ele>485.4</ele>
        <time>2016-01-16T10:15:21.269Z</time>
      </trkpt>
      <trkpt lat="48.05223" lon="7.27219">
        <ele>483.9</ele>
        <time>2016-01-16T10:15:29.272Z</time>
      </trkpt>
      <trkpt lat="48.0524" lon="7.27207">
        <ele>479.9</ele>
        <time>2016-01-16T10:15:35.314Z</time>
      </trkpt>
      <trkpt lat="48.05231" lon="7.27243">
        <ele>477</ele>
        <time>2016-01-16T10:15:44.323Z</time>
      </trkpt>
      <trkpt lat="48.05219" lon="7.27307">
        <ele>477.2</ele>
        <time>2016-01-16T10:15:53.338Z</time>
      </trkpt>
      <trkpt lat="48.05205" lon="7.27375">
        <ele>475</ele>
        <time>2016-01-16T10:16:01.342Z</time>
      </trkpt>
      <trkpt lat="48.05186" lon="7.27417">
        <ele>473.7</ele>
        <time>2016-01-16T10:16:07.316Z</time>
      </trkpt>
      <trkpt lat="48.05215" lon="7.27393">
        <ele>468.2</ele>
        <time>2016-01-16T10:16:19.317Z</time>
      </trkpt>
      <trkpt lat="48.05242" lon="7.27328">
        <ele>465.2</ele>
        <time>2016-01-16T10:16:27.343Z</time>
      </trkpt>
      <trkpt lat="48.05282" lon="7.2734">
        <ele>461.2</ele>
        <time>2016-01-16T10:16:39.348Z</time>
      </trkpt>
      <trkpt lat="48.05297" lon="7.274">
        <ele>450</ele>
        <time>2016-01-16T10:17:47.333Z</time>
      </trkpt>
      <trkpt lat="48.05318" lon="7.27456">
        <ele>443.8</ele>
        <time>2016-01-16T10:17:54.320Z</time>
      </trkpt>
      <trkpt lat="48.05285" lon="7.27411">
        <ele>441.5</ele>
        <time>2016-01-16T10:18:09.321Z</time>
      </trkpt>
      <trkpt lat="48.0526" lon="7.27377">
        <ele>438.8</ele>
        <time>2016-01-16T10:18:16.273Z</time>
      </trkpt>
      <trkpt lat="48.05252" lon="7.27415">
        <ele>435.6</ele>
        <time>2016-01-16T10:18:24.269Z</time>
      </trkpt>
      <trkpt lat="48.05249" lon="7.27453">
        <ele>434.1</ele>
        <time>2016-01-16T10:18:37.314Z</time>
      </trkpt>
      <trkpt lat="48.05248" lon="7.27477">
        <ele>434.5</ele>
        <time>2016-01-16T10:18:46.315Z</time>
      </trkpt>
      <trkpt lat="48.05251" lon="7.27454">
        <ele>437.8</ele>
        <time>2016-01-16T10:19:16.309Z</time>
      </trkpt>
      <trkpt lat="48.05274" lon="7.27422">
        <ele>433.1</ele>
        <time>2016-01-16T10:19:26.343Z</time>
      </trkpt>
      <trkpt lat="48.05285" lon="7.27489">
        <ele>427.8</ele>
        <time>2016-01-16T10:19:35.374Z</time>
      </trkpt>
      <trkpt lat="48.05294" lon="7.27565">
        <ele>420.7</ele>
        <time>2016-01-16T10:19:45.316Z</time>
      </trkpt>
      <trkpt lat="48.05297" lon="7.27626">
        <ele>417.2</ele>
        <time>2016-01-16T10:19:53.331Z</time>
      </trkpt>
      <trkpt lat="48.05288" lon="7.2763">
        <ele>416.5</ele>
        <time>2016-01-16T10:20:02.290Z</time>
      </trkpt>
      <trkpt lat="48.05284" lon="7.27584">
        <ele>416.5</ele>
        <time>2016-01-16T10:20:31.364Z</time>
      </trkpt>
      <trkpt lat="48.0528" lon="7.27553">
        <ele>415.1</ele>
        <time>2016-01-16T10:20:37.336Z</time>
      </trkpt>
      <trkpt lat="48.05274" lon="7.27573">
        <ele>414</ele>
        <time>2016-01-16T10:20:46.270Z</time>
      </trkpt>
      <trkpt lat="48.05274" lon="7.27587">
        <ele>413.2</ele>
        <time>2016-01-16T10:20:53.316Z</time>
      </trkpt>
      <trkpt lat="48.05266" lon="7.27624">
        <ele>408</ele>
        <time>2016-01-16T10:21:31.310Z</time>
      </trkpt>
      <trkpt lat="48.05276" lon="7.27672">
        <ele>407</ele>
        <time>2016-01-16T10:21:40.337Z</time>
      </trkpt>
      <trkpt lat="48.05284" lon="7.27728">
        <ele>402.2</ele>
        <time>2016-01-16T10:21:48.357Z</time>
      </trkpt>
      <trkpt lat="48.05288" lon="7.2778">
        <ele>398.9</ele>
        <time>2016-01-16T10:21:55.266Z</time>
      </trkpt>
      <trkpt lat="48.05294" lon="7.278">
        <ele>397.7</ele>
        <time>2016-01-16T10:22:01.277Z</time>
      </trkpt>
      <trkpt lat="48.05298" lon="7.27825">
        <ele>398</ele>
        <time>2016-01-16T10:22:09.311Z</time>
      </trkpt>
      <trkpt lat="48.05306" lon="7.27849">
        <ele>398.3</ele>
        <time>2016-01-16T10:22:16.299Z</time>
      </trkpt>
      <trkpt lat="48.05315" lon="7.27869">
        <ele>399.3</ele>
        <time>2016-01-16T10:22:23.289Z</time>
      </trkpt>
      <trkpt lat="48.05321" lon="7.27881">
        <ele>400.1</ele>
        <time>2016-01-16T10:22:49.269Z</time>
      </trkpt>
      <trkpt lat="48.05335" lon="7.27888">
        <ele>400.3</ele>
        <time>2016-01-16T10:22:57.271Z</time>
      </trkpt>
      <trkpt lat="48.05348" lon="7.27894">
        <ele>401.6</ele>
        <time>2016-01-16T10:23:06.307Z</time>
      </trkpt>
      <trkpt lat="48.05366" lon="7.27908">
        <ele>401.8</ele>
        <time>2016-01-16T10:23:15.279Z</time>
      </trkpt>
      <trkpt lat="48.05383" lon="7.27921">
        <ele>402</ele>
        <time>2016-01-16T10:23:23.319Z</time>
      </trkpt>
      <trkpt lat="48.05398" lon="7.27941">
        <ele>403.3</ele>
        <time>2016-01-16T10:23:31.271Z</time>
      </trkpt>
      <trkpt lat="48.0541" lon="7.27957">
        <ele>405</ele>
        <time>2016-01-16T10:23:38.298Z</time>
      </trkpt>
      <trkpt lat="48.05423" lon="7.27972">
        <ele>408.2</ele>
        <time>2016-01-16T10:23:45.349Z</time>
      </trkpt>
      <trkpt lat="48.05435" lon="7.27989">
        <ele>410.8</ele>
        <time>2016-01-16T10:23:53.283Z</time>
      </trkpt>
      <trkpt lat="48.05439" lon="7.28001">
        <ele>413</ele>
        <time>2016-01-16T10:24:12.282Z</time>
      </trkpt>
      <trkpt lat="48.05439" lon="7.2802">
        <ele>409.9</ele>
        <time>2016-01-16T10:24:34.315Z</time>
      </trkpt>
      <trkpt lat="48.05448" lon="7.28028">
        <ele>408.3</ele>
        <time>2016-01-16T10:24:55.362Z</time>
      </trkpt>
      <trkpt lat="48.05469" lon="7.28059">
        <ele>406.1</ele>
        <time>2016-01-16T10:25:04.315Z</time>
      </trkpt>
      <trkpt lat="48.05498" lon="7.2809">
        <ele>402.9</ele>
        <time>2016-01-16T10:25:12.330Z</time>
      </trkpt>
      <trkpt lat="48.05529" lon="7.28116">
        <ele>401.2</ele>
        <time>2016-01-16T10:25:20.306Z</time>
      </trkpt>
      <trkpt lat="48.05567" lon="7.28159">
        <ele>401.5</ele>
        <time>2016-01-16T10:25:29.305Z</time>
      </trkpt>
      <trkpt lat="48.05607" lon="7.2821">
        <ele>399.9</ele>
        <time>2016-01-16T10:25:37.316Z</time>
      </trkpt>
      <trkpt lat="48.05648" lon="7.28236">
        <ele>396.8</ele>
        <time>2016-01-16T10:25:44.327Z</time>
      </trkpt>
      <trkpt lat="48.05682" lon="7.2823">
        <ele>393.1</ele>
        <time>2016-01-16T10:25:52.360Z</time>
      </trkpt>
      <trkpt lat="48.0571" lon="7.28206">
        <ele>389</ele>
        <time>2016-01-16T10:25:59.386Z</time>
      </trkpt>
      <trkpt lat="48.05718" lon="7.28197">
        <ele>387.4</ele>
        <time>2016-01-16T10:26:05.272Z</time>
      </trkpt>
      <trkpt lat="48.05732" lon="7.28165">
        <ele>382.5</ele>
        <time>2016-01-16T10:26:21.368Z</time>
      </trkpt>
      <trkpt lat="48.05742" lon="7.28183">
        <ele>379.1</ele>
        <time>2016-01-16T10:26:34.270Z</time>
      </trkpt>
      <trkpt lat="48.05746" lon="7.28214">
        <ele>380.2</ele>
        <time>2016-01-16T10:28:18.293Z</time>
      </trkpt>
      <trkpt lat="48.05708" lon="7.28281">
        <ele>373.6</ele>
        <time>2016-01-16T10:28:28.277Z</time>
      </trkpt>
      <trkpt lat="48.05655" lon="7.28353">
        <ele>365.2</ele>
        <time>2016-01-16T10:28:36.300Z</time>
      </trkpt>
      <trkpt lat="48.05657" lon="7.28407">
        <ele>355.8</ele>
        <time>2016-01-16T10:28:55.314Z</time>
      </trkpt>
      <trkpt lat="48.05673" lon="7.28472">
        <ele>351.6</ele>
        <time>2016-01-16T10:29:03.270Z</time>
      </trkpt>
      <trkpt lat="48.05682" lon="7.28557">
        <ele>345.3</ele>
        <time>2016-01-16T10:29:11.273Z</time>
      </trkpt>
      <trkpt lat="48.05691" lon="7.2861">
        <ele>338.7</ele>
        <time>2016-01-16T10:29:17.287Z</time>
      </trkpt>
      <trkpt lat="48.05707" lon="7.28682">
        <ele>328.3</ele>
        <time>2016-01-16T10:29:27.282Z</time>
      </trkpt>
      <trkpt lat="48.05713" lon="7.28795">
        <ele>314.8</ele>
        <time>2016-01-16T10:29:38.341Z</time>
      </trkpt>
      <trkpt lat="48.0571" lon="7.28807">
        <ele>310.5</ele>
        <time>2016-01-16T10:29:49.271Z</time>
      </trkpt>
      <trkpt lat="48.05731" lon="7.28895">
        <ele>303.7</ele>
        <time>2016-01-16T10:30:45.356Z</time>
      </trkpt>
      <trkpt lat="48.05741" lon="7.2903">
        <ele>295.8</ele>
        <time>2016-01-16T10:30:53.285Z</time>
      </trkpt>
      <trkpt lat="48.05744" lon="7.29165">
        <ele>283.2</ele>
        <time>2016-01-16T10:31:00.269Z</time>
      </trkpt>
      <trkpt lat="48.0575" lon="7.29343">
        <ele>268.7</ele>
        <time>2016-01-16T10:31:08.272Z</time>
      </trkpt>
      <trkpt lat="48.05738" lon="7.29495">
        <ele>248.7</ele>
        <time>2016-01-16T10:31:15.275Z</time>
      </trkpt>
      <trkpt lat="48.05737" lon="7.29528">
        <ele>240.3</ele>
        <time>2016-01-16T10:31:20.300Z</time>
      </trkpt>
      <trkpt lat="48.05722" lon="7.2959">
        <ele>233.7</ele>
        <time>2016-01-16T10:31:47.340Z</time>
      </trkpt>
      <trkpt lat="48.0571" lon="7.29612">
        <ele>231.6</ele>
        <time>2016-01-16T10:31:53.336Z</time>
      </trkpt>
      <trkpt lat="48.05722" lon="7.29657">
        <ele>228.5</ele>
        <time>2016-01-16T10:32:01.274Z</time>
      </trkpt>
      <trkpt lat="48.05746" lon="7.29709">
        <ele>226</ele>
        <time>2016-01-16T10:32:10.299Z</time>
      </trkpt>
      <trkpt lat="48.05775" lon="7.29772">
        <ele>224.2</ele>
        <time>2016-01-16T10:32:18.306Z</time>
      </trkpt>
      <trkpt lat="48.05785" lon="7.29812">
        <ele>223.7</ele>
        <time>2016-01-16T10:32:25.280Z</time>
      </trkpt>
      <trkpt lat="48.0581" lon="7.29866">
        <ele>223.7</ele>
        <time>2016-01-16T10:32:34.273Z</time>
      </trkpt>
      <trkpt lat="48.05834" lon="7.29926">
        <ele>220.9</ele>
        <time>2016-01-16T10:32:42.271Z</time>
      </trkpt>
      <trkpt lat="48.05869" lon="7.29998">
        <ele>217.1</ele>
        <time>2016-01-16T10:32:51.293Z</time>
      </trkpt>
      <trkpt lat="48.05894" lon="7.30052">
        <ele>216.4</ele>
        <time>2016-01-16T10:32:58.292Z</time>
      </trkpt>
      <trkpt lat="48.05919" lon="7.30089">
        <ele>216.5</ele>
        <time>2016-01-16T10:33:05.316Z</time>
      </trkpt>
      <trkpt lat="48.05946" lon="7.30129">
        <ele>216</ele>
        <time>2016-01-16T10:33:13.326Z</time>
      </trkpt>
      <trkpt lat="48.05969" lon="7.30192">
        <ele>216</ele>
        <time>2016-01-16T10:33:21.288Z</time>
      </trkpt>
      <trkpt lat="48.05992" lon="7.30258">
        <ele>213.4</ele>
        <time>2016-01-16T10:33:29.292Z</time>
      </trkpt>
      <trkpt lat="48.06032" lon="7.30306">
        <ele>213.6</ele>
        <time>2016-01-16T10:33:37.288Z</time>
      </trkpt>
      <trkpt lat="48.06072" lon="7.30348">
        <ele>213.9</ele>
        <time>2016-01-16T10:33:45.314Z</time>
      </trkpt>
      <trkpt lat="48.06101" lon="7.30378">
        <ele>214.2</ele>
        <time>2016-01-16T10:33:52.289Z</time>
      </trkpt>
      <trkpt lat="48.06111" lon="7.30391">
        <ele>213.5</ele>
        <time>2016-01-16T10:33:58.336Z</time>
      </trkpt>
      <trkpt lat="48.06096" lon="7.30353">
        <ele>214.4</ele>
        <time>2016-01-16T10:34:18.354Z</time>
      </trkpt>
      <trkpt lat="48.06092" lon="7.30311">
        <ele>215.1</ele>
        <time>2016-01-16T10:34:25.317Z</time>
      </trkpt>
      <trkpt lat="48.06088" lon="7.30267">
        <ele>215.2</ele>
        <time>2016-01-16T10:34:32.280Z</time>
      </trkpt>
      <trkpt lat="48.06087" lon="7.30211">
        <ele>216.1</ele>
        <time>2016-01-16T10:34:40.292Z</time>
      </trkpt>
      <trkpt lat="48.06086" lon="7.30176">
        <ele>217.7</ele>
        <time>2016-01-16T10:34:47.296Z</time>
      </trkpt>
      <trkpt lat="48.06081" lon="7.30145">
        <ele>220.6</ele>
        <time>2016-01-16T10:34:54.309Z</time>
      </trkpt>
      <trkpt lat="48.06072" lon="7.30108">
        <ele>223.4</ele>
        <time>2016-01-16T10:35:03.351Z</time>
      </trkpt>
      <trkpt lat="48.06061" lon="7.30066">
        <ele>224.5</ele>
        <time>2016-01-16T10:35:11.342Z</time>
      </trkpt>
      <trkpt lat="48.06051" lon="7.30014">
        <ele>225.5</ele>
        <time>2016-01-16T10:35:19.289Z</time>
      </trkpt>
      <trkpt lat="48.06045" lon="7.29962">
        <ele>226.3</ele>
        <time>2016-01-16T10:35:27.319Z</time>
      </trkpt>
      <trkpt lat="48.06041" lon="7.29921">
        <ele>227.3</ele>
        <time>2016-01-16T10:35:34.327Z</time>
      </trkpt>
      <trkpt lat="48.06038" lon="7.29874">
        <ele>228.3</ele>
        <time>2016-01-16T10:35:42.314Z</time>
      </trkpt>
      <trkpt lat="48.06036" lon="7.29827">
        <ele>229.9</ele>
        <time>2016-01-16T10:35:50.299Z</time>
      </trkpt>
      <trkpt lat="48.06042" lon="7.29801">
        <ele>231</ele>
        <time>2016-01-16T10:35:56.279Z</time>
      </trkpt>
      <trkpt lat="48.0605" lon="7.29781">
        <ele>232.6</ele>
        <time>2016-01-16T10:36:04.320Z</time>
      </trkpt>
      <trkpt lat="48.06059" lon="7.29774">
        <ele>234.3</ele>
        <time>2016-01-16T10:36:10.290Z</time>
      </trkpt>
      <trkpt lat="48.06072" lon="7.29771">
        <ele>236.2</ele>
        <time>2016-01-16T10:36:18.320Z</time>
      </trkpt>
      <trkpt lat="48.06085" lon="7.29771">
        <ele>237.7</ele>
        <time>2016-01-16T10:36:26.340Z</time>
      </trkpt>
      <trkpt lat="48.06101" lon="7.29769">
        <ele>239.4</ele>
        <time>2016-01-16T10:36:34.314Z</time>
      </trkpt>
      <trkpt lat="48.06115" lon="7.29768">
        <ele>240.3</ele>
        <time>2016-01-16T10:36:41.353Z</time>
      </trkpt>
      <trkpt lat="48.06132" lon="7.29766">
        <ele>241.5</ele>
        <time>2016-01-16T10:36:49.276Z</time>
      </trkpt>
      <trkpt lat="48.06149" lon="7.29763">
        <ele>243.3</ele>
        <time>2016-01-16T10:36:57.271Z</time>
      </trkpt>
      <trkpt lat="48.06169" lon="7.29762">
        <ele>245.2</ele>
        <time>2016-01-16T10:37:05.273Z</time>
      </trkpt>
      <trkpt lat="48.06188" lon="7.2976">
        <ele>246.4</ele>
        <time>2016-01-16T10:37:13.313Z</time>
      </trkpt>
      <trkpt lat="48.06213" lon="7.29752">
        <ele>247.4</ele>
        <time>2016-01-16T10:37:22.271Z</time>
      </trkpt>
      <trkpt lat="48.06245" lon="7.29744">
        <ele>247</ele>
        <time>2016-01-16T10:37:30.342Z</time>
      </trkpt>
      <trkpt lat="48.06284" lon="7.29748">
        <ele>246.6</ele>
        <time>2016-01-16T10:37:38.289Z</time>
      </trkpt>
      <trkpt lat="48.06333" lon="7.29756">
        <ele>245.5</ele>
        <time>2016-01-16T10:37:46.308Z</time>
      </trkpt>
      <trkpt lat="48.06386" lon="7.29764">
        <ele>242.1</ele>
        <time>2016-01-16T10:37:53.312Z</time>
      </trkpt>
      <trkpt lat="48.06432" lon="7.29761">
        <ele>237.3</ele>
        <time>2016-01-16T10:38:00.358Z</time>
      </trkpt>
      <trkpt lat="48.06479" lon="7.29749">
        <ele>234.3</ele>
        <time>2016-01-16T10:38:08.316Z</time>
      </trkpt>
      <trkpt lat="48.06523" lon="7.29742">
        <ele>233.3</ele>
        <time>2016-01-16T10:38:15.321Z</time>
      </trkpt>
      <trkpt lat="48.0656" lon="7.29717">
        <ele>233</ele>
        <time>2016-01-16T10:38:22.301Z</time>
      </trkpt>
      <trkpt lat="48.06596" lon="7.29699">
        <ele>233.1</ele>
        <time>2016-01-16T10:38:29.314Z</time>
      </trkpt>
      <trkpt lat="48.06636" lon="7.2971">
        <ele>233.3</ele>
        <time>2016-01-16T10:38:37.291Z</time>
      </trkpt>
      <trkpt lat="48.06699" lon="7.2972">
        <ele>229.1</ele>
        <time>2016-01-16T10:38:46.300Z</time>
      </trkpt>
      <trkpt lat="48.06747" lon="7.29717">
        <ele>224.8</ele>
        <time>2016-01-16T10:38:53.308Z</time>
      </trkpt>
      <trkpt lat="48.06796" lon="7.29718">
        <ele>222.4</ele>
        <time>2016-01-16T10:39:01.316Z</time>
      </trkpt>
      <trkpt lat="48.06831" lon="7.2971">
        <ele>223.5</ele>
        <time>2016-01-16T10:39:08.301Z</time>
      </trkpt>
      <trkpt lat="48.06807" lon="7.29678">
        <ele>224.3</ele>
        <time>2016-01-16T10:39:16.293Z</time>
      </trkpt>
      <trkpt lat="48.06787" lon="7.29638">
        <ele>224.4</ele>
        <time>2016-01-16T10:39:24.272Z</time>
      </trkpt>
      <trkpt lat="48.068" lon="7.29586">
        <ele>225.7</ele>
        <time>2016-01-16T10:39:32.274Z</time>
      </trkpt>
      <trkpt lat="48.06808" lon="7.29542">
        <ele>227.6</ele>
        <time>2016-01-16T10:39:39.334Z</time>
      </trkpt>
      <trkpt lat="48.06825" lon="7.29495">
        <ele>229</ele>
        <time>2016-01-16T10:39:47.330Z</time>
      </trkpt>
      <trkpt lat="48.0684" lon="7.2945">
        <ele>229.7</ele>
        <time>2016-01-16T10:39:54.319Z</time>
      </trkpt>
      <trkpt lat="48.0685" lon="7.29404">
        <ele>230.8</ele>
        <time>2016-01-16T10:40:01.293Z</time>
      </trkpt>
      <trkpt lat="48.06859" lon="7.29348">
        <ele>233.9</ele>
        <time>2016-01-16T10:40:09.288Z</time>
      </trkpt>
      <trkpt lat="48.06868" lon="7.2929">
        <ele>234.3</ele>
        <time>2016-01-16T10:40:17.276Z</time>
      </trkpt>
      <trkpt lat="48.06878" lon="7.29234">
        <ele>231.2</ele>
        <time>2016-01-16T10:40:25.304Z</time>
      </trkpt>
      <trkpt lat="48.06888" lon="7.2918">
        <ele>231.8</ele>
        <time>2016-01-16T10:40:33.316Z</time>
      </trkpt>
      <trkpt lat="48.0689" lon="7.29135">
        <ele>231.9</ele>
        <time>2016-01-16T10:40:40.347Z</time>
      </trkpt>
      <trkpt lat="48.06898" lon="7.29092">
        <ele>231.5</ele>
        <time>2016-01-16T10:40:47.287Z</time>
      </trkpt>
      <trkpt lat="48.06907" lon="7.29051">
        <ele>234.5</ele>
        <time>2016-01-16T10:40:54.334Z</time>
      </trkpt>
      <trkpt lat="48.06917" lon="7.29002">
        <ele>236.2</ele>
        <time>2016-01-16T10:41:02.275Z</time>
      </trkpt>
      <trkpt lat="48.0692" lon="7.28941">
        <ele>235.5</ele>
        <time>2016-01-16T10:41:11.333Z</time>
      </trkpt>
      <trkpt lat="48.06926" lon="7.28891">
        <ele>236.2</ele>
        <time>2016-01-16T10:41:19.271Z</time>
      </trkpt>
      <trkpt lat="48.06925" lon="7.28847">
        <ele>237.3</ele>
        <time>2016-01-16T10:41:26.285Z</time>
      </trkpt>
      <trkpt lat="48.06933" lon="7.28797">
        <ele>237.3</ele>
        <time>2016-01-16T10:41:34.330Z</time>
      </trkpt>
      <trkpt lat="48.06941" lon="7.28748">
        <ele>237.3</ele>
        <time>2016-01-16T10:41:42.277Z</time>
      </trkpt>
      <trkpt lat="48.06956" lon="7.28701">
        <ele>239</ele>
        <time>2016-01-16T10:41:50.276Z</time>
      </trkpt>
      <trkpt lat="48.06972" lon="7.28648">
        <ele>240.2</ele>
        <time>2016-01-16T10:41:58.304Z</time>
      </trkpt>
      <trkpt lat="48.06989" lon="7.28617">
        <ele>240.8</ele>
        <time>2016-01-16T10:42:05.342Z</time>
      </trkpt>
      <trkpt lat="48.07008" lon="7.28581">
        <ele>238.8</ele>
        <time>2016-01-16T10:42:13.267Z</time>
      </trkpt>
      <trkpt lat="48.07018" lon="7.28536">
        <ele>238.7</ele>
        <time>2016-01-16T10:42:20.296Z</time>
      </trkpt>
      <trkpt lat="48.07023" lon="7.285">
        <ele>238.7</ele>
        <time>2016-01-16T10:42:27.301Z</time>
      </trkpt>
      <trkpt lat="48.07034" lon="7.28495">
        <ele>242.2</ele>
        <time>2016-01-16T10:42:50.326Z</time>
      </trkpt>
      <trkpt lat="48.07024" lon="7.285">
        <ele>240.6</ele>
        <time>2016-01-16T10:43:01.291Z</time>
      </trkpt>
      <trkpt lat="48.0702" lon="7.28512">
        <ele>238.7</ele>
        <time>2016-01-16T10:43:18.357Z</time>
      </trkpt>
      <trkpt lat="48.07014" lon="7.28563">
        <ele>238.5</ele>
        <time>2016-01-16T10:43:28.300Z</time>
      </trkpt>
      <trkpt lat="48.06999" lon="7.28578">
        <ele>236.3</ele>
        <time>2016-01-16T10:43:38.286Z</time>
      </trkpt>
      <trkpt lat="48.0699" lon="7.2856">
        <ele>237.7</ele>
        <time>2016-01-16T10:43:46.269Z</time>
      </trkpt>
      <trkpt lat="48.06978" lon="7.28546">
        <ele>241.1</ele>
        <time>2016-01-16T10:43:56.400Z</time>
      </trkpt>
      <trkpt lat="48.06966" lon="7.28547">
        <ele>243.7</ele>
        <time>2016-01-16T10:44:03.322Z</time>
      </trkpt>
      <trkpt lat="48.06959" lon="7.28535">
        <ele>247.1</ele>
        <time>2016-01-16T10:44:11.326Z</time>
      </trkpt>
      <trkpt lat="48.06953" lon="7.28518">
        <ele>248.4</ele>
        <time>2016-01-16T10:44:21.306Z</time>
      </trkpt>
      <trkpt lat="48.06972" lon="7.28549">
        <ele>245.9</ele>
        <time>2016-01-16T10:45:38.316Z</time>
      </trkpt>
      <trkpt lat="48.07" lon="7.28591">
        <ele>242</ele>
        <time>2016-01-16T10:45:46.348Z</time>
      </trkpt>
      <trkpt lat="48.07005" lon="7.28614">
        <ele>238</ele>
        <time>2016-01-16T10:45:52.309Z</time>
      </trkpt>
      <trkpt lat="48.07015" lon="7.28617">
        <ele>236</ele>
        <time>2016-01-16T10:46:09.339Z</time>
      </trkpt>
      <trkpt lat="48.07049" lon="7.28634">
        <ele>234.4</ele>
        <time>2016-01-16T10:46:19.353Z</time>
      </trkpt>
      <trkpt lat="48.07085" lon="7.28652">
        <ele>234.5</ele>
        <time>2016-01-16T10:46:27.313Z</time>
      </trkpt>
      <trkpt lat="48.07125" lon="7.28666">
        <ele>236.8</ele>
        <time>2016-01-16T10:46:35.279Z</time>
      </trkpt>
      <trkpt lat="48.07161" lon="7.28676">
        <ele>237.6</ele>
        <time>2016-01-16T10:46:42.304Z</time>
      </trkpt>
      <trkpt lat="48.07207" lon="7.28687">
        <ele>237.2</ele>
        <time>2016-01-16T10:46:51.318Z</time>
      </trkpt>
      <trkpt lat="48.07223" lon="7.28644">
        <ele>235.6</ele>
        <time>2016-01-16T10:47:01.360Z</time>
      </trkpt>
      <trkpt lat="48.07229" lon="7.28596">
        <ele>237.5</ele>
        <time>2016-01-16T10:47:09.297Z</time>
      </trkpt>
      <trkpt lat="48.07239" lon="7.28548">
        <ele>238.8</ele>
        <time>2016-01-16T10:47:17.282Z</time>
      </trkpt>
      <trkpt lat="48.07259" lon="7.28501">
        <ele>239.8</ele>
        <time>2016-01-16T10:47:25.281Z</time>
      </trkpt>
      <trkpt lat="48.07281" lon="7.28472">
        <ele>239.2</ele>
        <time>2016-01-16T10:47:32.278Z</time>
      </trkpt>
      <trkpt lat="48.0729" lon="7.28421">
        <ele>238.8</ele>
        <time>2016-01-16T10:47:40.293Z</time>
      </trkpt>
      <trkpt lat="48.07296" lon="7.28367">
        <ele>239.6</ele>
        <time>2016-01-16T10:47:48.278Z</time>
      </trkpt>
      <trkpt lat="48.07299" lon="7.28321">
        <ele>239.7</ele>
        <time>2016-01-16T10:47:55.295Z</time>
      </trkpt>
      <trkpt lat="48.07294" lon="7.28264">
        <ele>239.2</ele>
        <time>2016-01-16T10:48:03.291Z</time>
      </trkpt>
      <trkpt lat="48.07292" lon="7.28209">
        <ele>238.2</ele>
        <time>2016-01-16T10:48:11.276Z</time>
      </trkpt>
      <trkpt lat="48.07287" lon="7.2815">
        <ele>238.7</ele>
        <time>2016-01-16T10:48:20.284Z</time>
      </trkpt>
      <trkpt lat="48.07273" lon="7.28105">
        <ele>237.1</ele>
        <time>2016-01-16T10:48:28.303Z</time>
      </trkpt>
      <trkpt lat="48.07247" lon="7.28067">
        <ele>237.8</ele>
        <time>2016-01-16T10:48:36.294Z</time>
      </trkpt>
      <trkpt lat="48.07244" lon="7.28015">
        <ele>239</ele>
        <time>2016-01-16T10:48:44.358Z</time>
      </trkpt>
      <trkpt lat="48.07243" lon="7.27965">
        <ele>238.8</ele>
        <time>2016-01-16T10:48:51.326Z</time>
      </trkpt>
      <trkpt lat="48.07243" lon="7.27908">
        <ele>239</ele>
        <time>2016-01-16T10:48:59.335Z</time>
      </trkpt>
      <trkpt lat="48.07235" lon="7.27855">
        <ele>241.1</ele>
        <time>2016-01-16T10:49:07.337Z</time>
      </trkpt>
      <trkpt lat="48.07231" lon="7.27825">
        <ele>244.6</ele>
        <time>2016-01-16T10:49:14.362Z</time>
      </trkpt>
      <trkpt lat="48.07227" lon="7.27804">
        <ele>246.7</ele>
        <time>2016-01-16T10:49:21.354Z</time>
      </trkpt>
      <trkpt lat="48.07225" lon="7.27789">
        <ele>249.3</ele>
        <time>2016-01-16T10:49:28.369Z</time>
      </trkpt>
      <trkpt lat="48.07221" lon="7.27777">
        <ele>251.7</ele>
        <time>2016-01-16T10:49:36.355Z</time>
      </trkpt>
      <trkpt lat="48.07217" lon="7.27764">
        <ele>253.5</ele>
        <time>2016-01-16T10:49:44.346Z</time>
      </trkpt>
      <trkpt lat="48.07214" lon="7.27751">
        <ele>255.5</ele>
        <time>2016-01-16T10:49:52.318Z</time>
      </trkpt>
      <trkpt lat="48.07222" lon="7.27741">
        <ele>257</ele>
        <time>2016-01-16T10:50:00.321Z</time>
      </trkpt>
      <trkpt lat="48.07242" lon="7.27728">
        <ele>257</ele>
        <time>2016-01-16T10:50:10.344Z</time>
      </trkpt>
      <trkpt lat="48.0727" lon="7.27714">
        <ele>256.7</ele>
        <time>2016-01-16T10:50:18.393Z</time>
      </trkpt>
      <trkpt lat="48.07301" lon="7.27704">
        <ele>256</ele>
        <time>2016-01-16T10:50:25.335Z</time>
      </trkpt>
      <trkpt lat="48.07338" lon="7.27695">
        <ele>255.5</ele>
        <time>2016-01-16T10:50:33.352Z</time>
      </trkpt>
      <trkpt lat="48.07381" lon="7.2765">
        <ele>253</ele>
        <time>2016-01-16T10:50:42.341Z</time>
      </trkpt>
      <trkpt lat="48.07415" lon="7.27613">
        <ele>249.8</ele>
        <time>2016-01-16T10:50:50.320Z</time>
      </trkpt>
      <trkpt lat="48.07432" lon="7.27575">
        <ele>249.5</ele>
        <time>2016-01-16T10:50:57.340Z</time>
      </trkpt>
      <trkpt lat="48.07444" lon="7.27546">
        <ele>250.9</ele>
        <time>2016-01-16T10:51:04.365Z</time>
      </trkpt>
      <trkpt lat="48.07452" lon="7.27526">
        <ele>251.9</ele>
        <time>2016-01-16T10:51:11.364Z</time>
      </trkpt>
      <trkpt lat="48.07443" lon="7.27512">
        <ele>252</ele>
        <time>2016-01-16T10:51:18.309Z</time>
      </trkpt>
      <trkpt lat="48.07435" lon="7.27499">
        <ele>253.1</ele>
        <time>2016-01-16T10:51:26.296Z</time>
      </trkpt>
      <trkpt lat="48.07432" lon="7.27485">
        <ele>254.9</ele>
        <time>2016-01-16T10:51:36.315Z</time>
      </trkpt>
      <trkpt lat="48.07434" lon="7.27472">
        <ele>257.7</ele>
        <time>2016-01-16T10:51:48.358Z</time>
      </trkpt>
      <trkpt lat="48.07443" lon="7.2746">
        <ele>258.6</ele>
        <time>2016-01-16T10:52:02.280Z</time>
      </trkpt>
      <trkpt lat="48.07454" lon="7.27449">
        <ele>258.6</ele>
        <time>2016-01-16T10:52:09.316Z</time>
      </trkpt>
      <trkpt lat="48.07463" lon="7.27436">
        <ele>259.6</ele>
        <time>2016-01-16T10:52:17.374Z</time>
      </trkpt>
      <trkpt lat="48.07475" lon="7.27425">
        <ele>260.3</ele>
        <time>2016-01-16T10:52:25.333Z</time>
      </trkpt>
      <trkpt lat="48.07484" lon="7.27413">
        <ele>261.1</ele>
        <time>2016-01-16T10:52:32.283Z</time>
      </trkpt>
      <trkpt lat="48.07497" lon="7.274">
        <ele>262</ele>
        <time>2016-01-16T10:52:40.366Z</time>
      </trkpt>
      <trkpt lat="48.07524" lon="7.2738">
        <ele>261.4</ele>
        <time>2016-01-16T10:52:50.360Z</time>
      </trkpt>
      <trkpt lat="48.07541" lon="7.27362">
        <ele>261.1</ele>
        <time>2016-01-16T10:52:58.311Z</time>
      </trkpt>
      <trkpt lat="48.07552" lon="7.27341">
        <ele>260.5</ele>
        <time>2016-01-16T10:53:06.328Z</time>
      </trkpt>
      <trkpt lat="48.07559" lon="7.27324">
        <ele>261.2</ele>
        <time>2016-01-16T10:53:13.320Z</time>
      </trkpt>
      <trkpt lat="48.07568" lon="7.27305">
        <ele>262.1</ele>
        <time>2016-01-16T10:53:21.318Z</time>
      </trkpt>
      <trkpt lat="48.07574" lon="7.27288">
        <ele>263</ele>
        <time>2016-01-16T10:53:28.323Z</time>
      </trkpt>
      <trkpt lat="48.07578" lon="7.2727">
        <ele>265.1</ele>
        <time>2016-01-16T10:53:35.339Z</time>
      </trkpt>
      <trkpt lat="48.07572" lon="7.27261">
        <ele>269.3</ele>
        <time>2016-01-16T10:53:55.340Z</time>
      </trkpt>
      <trkpt lat="48.07578" lon="7.27248">
        <ele>271.7</ele>
        <time>2016-01-16T10:54:10.365Z</time>
      </trkpt>
      <trkpt lat="48.07581" lon="7.27235">
        <ele>272.4</ele>
        <time>2016-01-16T10:54:16.317Z</time>
      </trkpt>
      <trkpt lat="48.07588" lon="7.27213">
        <ele>273.9</ele>
        <time>2016-01-16T10:54:24.356Z</time>
      </trkpt>
      <trkpt lat="48.07595" lon="7.27182">
        <ele>275.4</ele>
        <time>2016-01-16T10:54:34.361Z</time>
      </trkpt>
      <trkpt lat="48.076" lon="7.27162">
        <ele>276.2</ele>
        <time>2016-01-16T10:54:42.318Z</time>
      </trkpt>
      <trkpt lat="48.07603" lon="7.27137">
        <ele>276.5</ele>
        <time>2016-01-16T10:54:51.361Z</time>
      </trkpt>
      <trkpt lat="48.07602" lon="7.27118">
        <ele>277.1</ele>
        <time>2016-01-16T10:54:58.324Z</time>
      </trkpt>
      <trkpt lat="48.07602" lon="7.27096">
        <ele>278.8</ele>
        <time>2016-01-16T10:55:07.326Z</time>
      </trkpt>
      <trkpt lat="48.07597" lon="7.27083">
        <ele>279.9</ele>
        <time>2016-01-16T10:55:18.322Z</time>
      </trkpt>
      <trkpt lat="48.07592" lon="7.2706">
        <ele>282.2</ele>
        <time>2016-01-16T10:55:26.285Z</time>
      </trkpt>
      <trkpt lat="48.07591" lon="7.27033">
        <ele>280.9</ele>
        <time>2016-01-16T10:55:33.357Z</time>
      </trkpt>
      <trkpt lat="48.07589" lon="7.27013">
        <ele>278.7</ele>
        <time>2016-01-16T10:55:40.365Z</time>
      </trkpt>
      <trkpt lat="48.07593" lon="7.27002">
        <ele>276.7</ele>
        <time>2016-01-16T10:55:48.346Z</time>
      </trkpt>
      <trkpt lat="48.07593" lon="7.26968">
        <ele>278.5</ele>
        <time>2016-01-16T10:57:27.278Z</time>
      </trkpt>
      <trkpt lat="48.07597" lon="7.26939">
        <ele>278.5</ele>
        <time>2016-01-16T10:57:36.270Z</time>
      </trkpt>
      <trkpt lat="48.07591" lon="7.2692">
        <ele>280.4</ele>
        <time>2016-01-16T10:57:43.357Z</time>
      </trkpt>
      <trkpt lat="48.07582" lon="7.26912">
        <ele>283.7</ele>
        <time>2016-01-16T10:57:53.319Z</time>
      </trkpt>
      <trkpt lat="48.07576" lon="7.269">
        <ele>285.4</ele>
        <time>2016-01-16T10:58:12.311Z</time>
      </trkpt>
      <trkpt lat="48.07572" lon="7.26887">
        <ele>287.3</ele>
        <time>2016-01-16T10:58:23.328Z</time>
      </trkpt>
      <trkpt lat="48.07571" lon="7.26873">
        <ele>289</ele>
        <time>2016-01-16T10:58:36.321Z</time>
      </trkpt>
      <trkpt lat="48.07566" lon="7.2686">
        <ele>291.7</ele>
        <time>2016-01-16T10:58:48.324Z</time>
      </trkpt>
      <trkpt lat="48.0756" lon="7.26849">
        <ele>293.8</ele>
        <time>2016-01-16T10:58:56.352Z</time>
      </trkpt>
      <trkpt lat="48.07555" lon="7.26838">
        <ele>294.9</ele>
        <time>2016-01-16T10:59:05.343Z</time>
      </trkpt>
      <trkpt lat="48.07553" lon="7.268">
        <ele>296.3</ele>
        <time>2016-01-16T10:59:19.310Z</time>
      </trkpt>
      <trkpt lat="48.07564" lon="7.26776">
        <ele>294.4</ele>
        <time>2016-01-16T10:59:32.330Z</time>
      </trkpt>
      <trkpt lat="48.07569" lon="7.26721">
        <ele>288.9</ele>
        <time>2016-01-16T10:59:41.356Z</time>
      </trkpt>
      <trkpt lat="48.07554" lon="7.2669">
        <ele>285.2</ele>
        <time>2016-01-16T10:59:48.352Z</time>
      </trkpt>
      <trkpt lat="48.07536" lon="7.26666">
        <ele>282.7</ele>
        <time>2016-01-16T10:59:56.360Z</time>
      </trkpt>
      <trkpt lat="48.07519" lon="7.26633">
        <ele>282</ele>
        <time>2016-01-16T11:00:04.350Z</time>
      </trkpt>
      <trkpt lat="48.07512" lon="7.26619">
        <ele>281.8</ele>
        <time>2016-01-16T11:00:10.347Z</time>
      </trkpt>
      <trkpt lat="48.07517" lon="7.26563">
        <ele>279.3</ele>
        <time>2016-01-16T11:00:47.356Z</time>
      </trkpt>
      <trkpt lat="48.07523" lon="7.26552">
        <ele>276.5</ele>
        <time>2016-01-16T11:00:57.324Z</time>
      </trkpt>
      <trkpt lat="48.07527" lon="7.26543">
        <ele>269</ele>
        <time>2016-01-16T11:01:15.331Z</time>
      </trkpt>
      <trkpt lat="48.07566" lon="7.26567">
        <ele>263.6</ele>
        <time>2016-01-16T11:01:28.349Z</time>
      </trkpt>
      <trkpt lat="48.07583" lon="7.26541">
        <ele>260.7</ele>
        <time>2016-01-16T11:01:35.330Z</time>
      </trkpt>
    </trkseg>
  </trk>
</gpx>